<?xml version="1.0" encoding="UTF-8" standalone="no" ?>
<gpx xmlns="http://www.topografix.com/GPX/1/1" xmlns:xsi="http://www.w3.org/2001/XMLSchema-instance" xsi:schemaLocation="http://www.topografix.com/GPX/1/1 http://www.topografix.com/GPX/1/1/gpx.xsd" version="1.1" creator="VisuGPX - https://www.visugpx.com">
  <metadata>
    <name>Bauduen Baudinard 11.5km 360m</name>
    <desc><![CDATA[Une petite randonnée pour profiter des belles vues à 360° tout au long du parcours.
Sur le trajet une ferme en ruine du XVIIIe siècle avec son aire de battage et 2 dolmens.
 ]]></desc>
  </metadata>
  <trk>
    <name><![CDATA[Bauduen Baudinard 11km 360m]]></name>
    <extensions>
      <line xmlns="http://www.topografix.com/GPX/gpx_style/0/2">
        <color>0000FF</color>
        <width>4</width>
      </line>
    </extensions>
    <trkseg>
      <trkpt lat="43.72709" lon="6.17574">
        <ele>525.9</ele>
        <time>2022-04-10T11:43:55Z</time>
      </trkpt>
      <trkpt lat="43.727" lon="6.17579">
        <ele>526.1</ele>
        <time>2022-04-10T11:44:07Z</time>
      </trkpt>
      <trkpt lat="43.72691" lon="6.17583">
        <ele>526.6</ele>
        <time>2022-04-10T11:44:18Z</time>
      </trkpt>
      <trkpt lat="43.72684" lon="6.17567">
        <ele>530.8</ele>
        <time>2022-04-10T11:45:05Z</time>
      </trkpt>
      <trkpt lat="43.72679" lon="6.1757">
        <ele>530.8</ele>
        <time>2022-04-10T11:45:28Z</time>
      </trkpt>
      <trkpt lat="43.72672" lon="6.17578">
        <ele>529.8</ele>
        <time>2022-04-10T11:45:41Z</time>
      </trkpt>
      <trkpt lat="43.72662" lon="6.17579">
        <ele>530.6</ele>
        <time>2022-04-10T11:45:55Z</time>
      </trkpt>
      <trkpt lat="43.72654" lon="6.17576">
        <ele>532.8</ele>
        <time>2022-04-10T11:46:08Z</time>
      </trkpt>
      <trkpt lat="43.72645" lon="6.17573">
        <ele>535.1</ele>
        <time>2022-04-10T11:46:24Z</time>
      </trkpt>
      <trkpt lat="43.72636" lon="6.1757">
        <ele>537.3</ele>
        <time>2022-04-10T11:46:41Z</time>
      </trkpt>
      <trkpt lat="43.72618" lon="6.17569">
        <ele>541.6</ele>
        <time>2022-04-10T11:47:14Z</time>
      </trkpt>
      <trkpt lat="43.72608" lon="6.1757">
        <ele>543.6</ele>
        <time>2022-04-10T11:47:27Z</time>
      </trkpt>
      <trkpt lat="43.72596" lon="6.17568">
        <ele>546</ele>
        <time>2022-04-10T11:47:41Z</time>
      </trkpt>
      <trkpt lat="43.72586" lon="6.17571">
        <ele>547.3</ele>
        <time>2022-04-10T11:47:55Z</time>
      </trkpt>
      <trkpt lat="43.72576" lon="6.17574">
        <ele>548.4</ele>
        <time>2022-04-10T11:48:08Z</time>
      </trkpt>
      <trkpt lat="43.72565" lon="6.17577">
        <ele>549.8</ele>
        <time>2022-04-10T11:48:21Z</time>
      </trkpt>
      <trkpt lat="43.72554" lon="6.17581">
        <ele>551</ele>
        <time>2022-04-10T11:48:34Z</time>
      </trkpt>
      <trkpt lat="43.72542" lon="6.17582">
        <ele>553.7</ele>
        <time>2022-04-10T11:48:49Z</time>
      </trkpt>
      <trkpt lat="43.7253" lon="6.17583">
        <ele>556.5</ele>
        <time>2022-04-10T11:49:05Z</time>
      </trkpt>
      <trkpt lat="43.72518" lon="6.17584">
        <ele>558.7</ele>
        <time>2022-04-10T11:49:19Z</time>
      </trkpt>
      <trkpt lat="43.72508" lon="6.17583">
        <ele>560.5</ele>
        <time>2022-04-10T11:49:35Z</time>
      </trkpt>
      <trkpt lat="43.72495" lon="6.17583">
        <ele>563</ele>
        <time>2022-04-10T11:49:55Z</time>
      </trkpt>
      <trkpt lat="43.72484" lon="6.17587">
        <ele>564.1</ele>
        <time>2022-04-10T11:50:11Z</time>
      </trkpt>
      <trkpt lat="43.72474" lon="6.17585">
        <ele>566.3</ele>
        <time>2022-04-10T11:50:26Z</time>
      </trkpt>
      <trkpt lat="43.72465" lon="6.17578">
        <ele>568.3</ele>
        <time>2022-04-10T11:50:43Z</time>
      </trkpt>
      <trkpt lat="43.72456" lon="6.17571">
        <ele>570.5</ele>
        <time>2022-04-10T11:50:57Z</time>
      </trkpt>
      <trkpt lat="43.7245" lon="6.1757">
        <ele>571.2</ele>
        <time>2022-04-10T11:51:16Z</time>
      </trkpt>
      <trkpt lat="43.72438" lon="6.17568">
        <ele>573.6</ele>
        <time>2022-04-10T11:51:35Z</time>
      </trkpt>
      <trkpt lat="43.72426" lon="6.1757">
        <ele>575.4</ele>
        <time>2022-04-10T11:51:51Z</time>
      </trkpt>
      <trkpt lat="43.72415" lon="6.1757">
        <ele>577.6</ele>
        <time>2022-04-10T11:52:06Z</time>
      </trkpt>
      <trkpt lat="43.72404" lon="6.1757">
        <ele>579.7</ele>
        <time>2022-04-10T11:52:21Z</time>
      </trkpt>
      <trkpt lat="43.72393" lon="6.17567">
        <ele>582.6</ele>
        <time>2022-04-10T11:52:35Z</time>
      </trkpt>
      <trkpt lat="43.72383" lon="6.17568">
        <ele>583.3</ele>
        <time>2022-04-10T11:52:47Z</time>
      </trkpt>
      <trkpt lat="43.72372" lon="6.1757">
        <ele>583.9</ele>
        <time>2022-04-10T11:52:58Z</time>
      </trkpt>
      <trkpt lat="43.72361" lon="6.1757">
        <ele>584.9</ele>
        <time>2022-04-10T11:53:10Z</time>
      </trkpt>
      <trkpt lat="43.72349" lon="6.17573">
        <ele>584.9</ele>
        <time>2022-04-10T11:53:22Z</time>
      </trkpt>
      <trkpt lat="43.72339" lon="6.1757">
        <ele>585.4</ele>
        <time>2022-04-10T11:53:33Z</time>
      </trkpt>
      <trkpt lat="43.72331" lon="6.17567">
        <ele>585.8</ele>
        <time>2022-04-10T11:53:47Z</time>
      </trkpt>
      <trkpt lat="43.72328" lon="6.17558">
        <ele>586</ele>
        <time>2022-04-10T11:54:17Z</time>
      </trkpt>
      <trkpt lat="43.72332" lon="6.17546">
        <ele>584.9</ele>
        <time>2022-04-10T11:54:29Z</time>
      </trkpt>
      <trkpt lat="43.72335" lon="6.17528">
        <ele>583.3</ele>
        <time>2022-04-10T11:54:41Z</time>
      </trkpt>
      <trkpt lat="43.7233" lon="6.17521">
        <ele>581.7</ele>
        <time>2022-04-10T11:54:52Z</time>
      </trkpt>
      <trkpt lat="43.7232" lon="6.17522">
        <ele>581</ele>
        <time>2022-04-10T11:55:02Z</time>
      </trkpt>
      <trkpt lat="43.72309" lon="6.17525">
        <ele>580.6</ele>
        <time>2022-04-10T11:55:12Z</time>
      </trkpt>
      <trkpt lat="43.72298" lon="6.17521">
        <ele>578.9</ele>
        <time>2022-04-10T11:55:22Z</time>
      </trkpt>
      <trkpt lat="43.72287" lon="6.17516">
        <ele>577.2</ele>
        <time>2022-04-10T11:55:32Z</time>
      </trkpt>
      <trkpt lat="43.72277" lon="6.17511">
        <ele>575.3</ele>
        <time>2022-04-10T11:55:41Z</time>
      </trkpt>
      <trkpt lat="43.72266" lon="6.17508">
        <ele>574.8</ele>
        <time>2022-04-10T11:55:50Z</time>
      </trkpt>
      <trkpt lat="43.72258" lon="6.17505">
        <ele>574.4</ele>
        <time>2022-04-10T11:56:01Z</time>
      </trkpt>
      <trkpt lat="43.7225" lon="6.17488">
        <ele>573.5</ele>
        <time>2022-04-10T11:56:17Z</time>
      </trkpt>
      <trkpt lat="43.72244" lon="6.17468">
        <ele>573.7</ele>
        <time>2022-04-10T11:56:30Z</time>
      </trkpt>
      <trkpt lat="43.7225" lon="6.17448">
        <ele>574.7</ele>
        <time>2022-04-10T11:56:42Z</time>
      </trkpt>
      <trkpt lat="43.72256" lon="6.17439">
        <ele>575.3</ele>
        <time>2022-04-10T11:56:54Z</time>
      </trkpt>
      <trkpt lat="43.72265" lon="6.1743">
        <ele>576.1</ele>
        <time>2022-04-10T11:57:05Z</time>
      </trkpt>
      <trkpt lat="43.72272" lon="6.17421">
        <ele>576.9</ele>
        <time>2022-04-10T11:57:15Z</time>
      </trkpt>
      <trkpt lat="43.72277" lon="6.17409">
        <ele>578.1</ele>
        <time>2022-04-10T11:57:25Z</time>
      </trkpt>
      <trkpt lat="43.72284" lon="6.174">
        <ele>577.8</ele>
        <time>2022-04-10T11:57:36Z</time>
      </trkpt>
      <trkpt lat="43.7229" lon="6.17388">
        <ele>577.9</ele>
        <time>2022-04-10T11:57:47Z</time>
      </trkpt>
      <trkpt lat="43.72298" lon="6.1738">
        <ele>577.2</ele>
        <time>2022-04-10T11:57:57Z</time>
      </trkpt>
      <trkpt lat="43.72305" lon="6.17367">
        <ele>577.4</ele>
        <time>2022-04-10T11:58:08Z</time>
      </trkpt>
      <trkpt lat="43.7231" lon="6.17353">
        <ele>577.4</ele>
        <time>2022-04-10T11:58:19Z</time>
      </trkpt>
      <trkpt lat="43.72312" lon="6.17336">
        <ele>577.8</ele>
        <time>2022-04-10T11:58:30Z</time>
      </trkpt>
      <trkpt lat="43.72317" lon="6.17322">
        <ele>577.8</ele>
        <time>2022-04-10T11:58:41Z</time>
      </trkpt>
      <trkpt lat="43.7232" lon="6.17304">
        <ele>578.5</ele>
        <time>2022-04-10T11:58:53Z</time>
      </trkpt>
      <trkpt lat="43.72328" lon="6.17295">
        <ele>577</ele>
        <time>2022-04-10T11:59:04Z</time>
      </trkpt>
      <trkpt lat="43.72331" lon="6.17273">
        <ele>579.5</ele>
        <time>2022-04-10T11:59:14Z</time>
      </trkpt>
      <trkpt lat="43.72336" lon="6.17263">
        <ele>580.5</ele>
        <time>2022-04-10T11:59:25Z</time>
      </trkpt>
      <trkpt lat="43.72343" lon="6.17252">
        <ele>581.1</ele>
        <time>2022-04-10T11:59:37Z</time>
      </trkpt>
      <trkpt lat="43.7235" lon="6.17243">
        <ele>581</ele>
        <time>2022-04-10T11:59:48Z</time>
      </trkpt>
      <trkpt lat="43.72357" lon="6.17231">
        <ele>581.3</ele>
        <time>2022-04-10T11:59:59Z</time>
      </trkpt>
      <trkpt lat="43.72365" lon="6.17217">
        <ele>581</ele>
        <time>2022-04-10T12:00:13Z</time>
      </trkpt>
      <trkpt lat="43.72369" lon="6.172">
        <ele>580.9</ele>
        <time>2022-04-10T12:00:29Z</time>
      </trkpt>
      <trkpt lat="43.72363" lon="6.1717">
        <ele>583.3</ele>
        <time>2022-04-10T12:00:40Z</time>
      </trkpt>
      <trkpt lat="43.72365" lon="6.17153">
        <ele>582.9</ele>
        <time>2022-04-10T12:00:50Z</time>
      </trkpt>
      <trkpt lat="43.72367" lon="6.17134">
        <ele>582.2</ele>
        <time>2022-04-10T12:01:02Z</time>
      </trkpt>
      <trkpt lat="43.72369" lon="6.17114">
        <ele>581.4</ele>
        <time>2022-04-10T12:01:14Z</time>
      </trkpt>
      <trkpt lat="43.72367" lon="6.17095">
        <ele>583.6</ele>
        <time>2022-04-10T12:01:27Z</time>
      </trkpt>
      <trkpt lat="43.72373" lon="6.17081">
        <ele>583.3</ele>
        <time>2022-04-10T12:01:38Z</time>
      </trkpt>
      <trkpt lat="43.72379" lon="6.17067">
        <ele>583.4</ele>
        <time>2022-04-10T12:01:50Z</time>
      </trkpt>
      <trkpt lat="43.72382" lon="6.17051">
        <ele>584.6</ele>
        <time>2022-04-10T12:02:04Z</time>
      </trkpt>
      <trkpt lat="43.72391" lon="6.17037">
        <ele>584</ele>
        <time>2022-04-10T12:02:18Z</time>
      </trkpt>
      <trkpt lat="43.724" lon="6.17025">
        <ele>583.9</ele>
        <time>2022-04-10T12:02:30Z</time>
      </trkpt>
      <trkpt lat="43.72404" lon="6.17009">
        <ele>584.1</ele>
        <time>2022-04-10T12:02:43Z</time>
      </trkpt>
      <trkpt lat="43.72401" lon="6.16995">
        <ele>584.4</ele>
        <time>2022-04-10T12:03:07Z</time>
      </trkpt>
      <trkpt lat="43.72399" lon="6.16984">
        <ele>584.1</ele>
        <time>2022-04-10T12:03:22Z</time>
      </trkpt>
      <trkpt lat="43.72397" lon="6.16993">
        <ele>584.5</ele>
        <time>2022-04-10T12:03:57Z</time>
      </trkpt>
      <trkpt lat="43.72405" lon="6.16991">
        <ele>584.1</ele>
        <time>2022-04-10T12:04:22Z</time>
      </trkpt>
      <trkpt lat="43.72404" lon="6.1698">
        <ele>583.7</ele>
        <time>2022-04-10T12:04:52Z</time>
      </trkpt>
      <trkpt lat="43.72413" lon="6.16977">
        <ele>583.3</ele>
        <time>2022-04-10T12:05:08Z</time>
      </trkpt>
      <trkpt lat="43.72423" lon="6.16975">
        <ele>582.6</ele>
        <time>2022-04-10T12:05:29Z</time>
      </trkpt>
      <trkpt lat="43.72437" lon="6.16988">
        <ele>581.7</ele>
        <time>2022-04-10T12:05:42Z</time>
      </trkpt>
      <trkpt lat="43.72448" lon="6.16992">
        <ele>580.5</ele>
        <time>2022-04-10T12:06:09Z</time>
      </trkpt>
      <trkpt lat="43.72444" lon="6.16991">
        <ele>581.1</ele>
        <time>2022-04-10T12:06:31Z</time>
      </trkpt>
      <trkpt lat="43.72447" lon="6.16991">
        <ele>580.7</ele>
        <time>2022-04-10T12:07:10Z</time>
      </trkpt>
      <trkpt lat="43.72436" lon="6.16982">
        <ele>581.7</ele>
        <time>2022-04-10T12:07:28Z</time>
      </trkpt>
      <trkpt lat="43.72429" lon="6.16976">
        <ele>582.2</ele>
        <time>2022-04-10T12:07:55Z</time>
      </trkpt>
      <trkpt lat="43.72419" lon="6.16962">
        <ele>582.1</ele>
        <time>2022-04-10T12:08:08Z</time>
      </trkpt>
      <trkpt lat="43.72417" lon="6.1695">
        <ele>581.4</ele>
        <time>2022-04-10T12:08:23Z</time>
      </trkpt>
      <trkpt lat="43.72415" lon="6.16935">
        <ele>579.7</ele>
        <time>2022-04-10T12:08:35Z</time>
      </trkpt>
      <trkpt lat="43.72417" lon="6.16924">
        <ele>578</ele>
        <time>2022-04-10T12:08:50Z</time>
      </trkpt>
      <trkpt lat="43.72424" lon="6.16911">
        <ele>575.4</ele>
        <time>2022-04-10T12:09:03Z</time>
      </trkpt>
      <trkpt lat="43.7243" lon="6.16892">
        <ele>571.6</ele>
        <time>2022-04-10T12:09:16Z</time>
      </trkpt>
      <trkpt lat="43.72431" lon="6.16875">
        <ele>569</ele>
        <time>2022-04-10T12:09:30Z</time>
      </trkpt>
      <trkpt lat="43.72434" lon="6.16855">
        <ele>565.7</ele>
        <time>2022-04-10T12:09:46Z</time>
      </trkpt>
      <trkpt lat="43.72436" lon="6.16842">
        <ele>563.1</ele>
        <time>2022-04-10T12:09:59Z</time>
      </trkpt>
      <trkpt lat="43.72433" lon="6.16827">
        <ele>560.8</ele>
        <time>2022-04-10T12:10:14Z</time>
      </trkpt>
      <trkpt lat="43.72427" lon="6.16814">
        <ele>559.1</ele>
        <time>2022-04-10T12:10:25Z</time>
      </trkpt>
      <trkpt lat="43.72421" lon="6.168">
        <ele>557.5</ele>
        <time>2022-04-10T12:10:38Z</time>
      </trkpt>
      <trkpt lat="43.72413" lon="6.16792">
        <ele>556.7</ele>
        <time>2022-04-10T12:10:49Z</time>
      </trkpt>
      <trkpt lat="43.72404" lon="6.16784">
        <ele>556</ele>
        <time>2022-04-10T12:10:59Z</time>
      </trkpt>
      <trkpt lat="43.72397" lon="6.16775">
        <ele>555</ele>
        <time>2022-04-10T12:11:09Z</time>
      </trkpt>
      <trkpt lat="43.72388" lon="6.16765">
        <ele>554.1</ele>
        <time>2022-04-10T12:11:21Z</time>
      </trkpt>
      <trkpt lat="43.72387" lon="6.16745">
        <ele>551.7</ele>
        <time>2022-04-10T12:11:32Z</time>
      </trkpt>
      <trkpt lat="43.72387" lon="6.16732">
        <ele>550.8</ele>
        <time>2022-04-10T12:11:43Z</time>
      </trkpt>
      <trkpt lat="43.72393" lon="6.16734">
        <ele>550.2</ele>
        <time>2022-04-10T12:12:01Z</time>
      </trkpt>
      <trkpt lat="43.72394" lon="6.1673">
        <ele>549.5</ele>
        <time>2022-04-10T12:12:44Z</time>
      </trkpt>
      <trkpt lat="43.72391" lon="6.1672">
        <ele>549.4</ele>
        <time>2022-04-10T12:13:03Z</time>
      </trkpt>
      <trkpt lat="43.72385" lon="6.16705">
        <ele>549.2</ele>
        <time>2022-04-10T12:13:18Z</time>
      </trkpt>
      <trkpt lat="43.72382" lon="6.16687">
        <ele>548.8</ele>
        <time>2022-04-10T12:13:29Z</time>
      </trkpt>
      <trkpt lat="43.72375" lon="6.16673">
        <ele>549.4</ele>
        <time>2022-04-10T12:13:41Z</time>
      </trkpt>
      <trkpt lat="43.72367" lon="6.16663">
        <ele>550.3</ele>
        <time>2022-04-10T12:13:52Z</time>
      </trkpt>
      <trkpt lat="43.72359" lon="6.1665">
        <ele>550.6</ele>
        <time>2022-04-10T12:14:02Z</time>
      </trkpt>
      <trkpt lat="43.72352" lon="6.16638">
        <ele>551</ele>
        <time>2022-04-10T12:14:11Z</time>
      </trkpt>
      <trkpt lat="43.72351" lon="6.16624">
        <ele>551.6</ele>
        <time>2022-04-10T12:14:20Z</time>
      </trkpt>
      <trkpt lat="43.72347" lon="6.1661">
        <ele>552.1</ele>
        <time>2022-04-10T12:14:29Z</time>
      </trkpt>
      <trkpt lat="43.72344" lon="6.16596">
        <ele>553</ele>
        <time>2022-04-10T12:14:39Z</time>
      </trkpt>
      <trkpt lat="43.72341" lon="6.16583">
        <ele>553.6</ele>
        <time>2022-04-10T12:14:50Z</time>
      </trkpt>
      <trkpt lat="43.72341" lon="6.16568">
        <ele>555.4</ele>
        <time>2022-04-10T12:15:01Z</time>
      </trkpt>
      <trkpt lat="43.72343" lon="6.16556">
        <ele>557.3</ele>
        <time>2022-04-10T12:15:12Z</time>
      </trkpt>
      <trkpt lat="43.72344" lon="6.16546">
        <ele>558.9</ele>
        <time>2022-04-10T12:15:45Z</time>
      </trkpt>
      <trkpt lat="43.72337" lon="6.16537">
        <ele>558.7</ele>
        <time>2022-04-10T12:15:59Z</time>
      </trkpt>
      <trkpt lat="43.72329" lon="6.16528">
        <ele>558.5</ele>
        <time>2022-04-10T12:16:11Z</time>
      </trkpt>
      <trkpt lat="43.72318" lon="6.16516">
        <ele>559</ele>
        <time>2022-04-10T12:16:23Z</time>
      </trkpt>
      <trkpt lat="43.7231" lon="6.16505">
        <ele>559.2</ele>
        <time>2022-04-10T12:16:34Z</time>
      </trkpt>
      <trkpt lat="43.72302" lon="6.16493">
        <ele>559.8</ele>
        <time>2022-04-10T12:16:44Z</time>
      </trkpt>
      <trkpt lat="43.72295" lon="6.16482">
        <ele>560.4</ele>
        <time>2022-04-10T12:16:54Z</time>
      </trkpt>
      <trkpt lat="43.7229" lon="6.16472">
        <ele>560.8</ele>
        <time>2022-04-10T12:17:03Z</time>
      </trkpt>
      <trkpt lat="43.72282" lon="6.16459">
        <ele>561.2</ele>
        <time>2022-04-10T12:17:13Z</time>
      </trkpt>
      <trkpt lat="43.72277" lon="6.16445">
        <ele>561.9</ele>
        <time>2022-04-10T12:17:23Z</time>
      </trkpt>
      <trkpt lat="43.72271" lon="6.16433">
        <ele>563.5</ele>
        <time>2022-04-10T12:17:33Z</time>
      </trkpt>
      <trkpt lat="43.72264" lon="6.16419">
        <ele>564.7</ele>
        <time>2022-04-10T12:17:43Z</time>
      </trkpt>
      <trkpt lat="43.72257" lon="6.16408">
        <ele>565.2</ele>
        <time>2022-04-10T12:17:54Z</time>
      </trkpt>
      <trkpt lat="43.72251" lon="6.16394">
        <ele>565.7</ele>
        <time>2022-04-10T12:18:05Z</time>
      </trkpt>
      <trkpt lat="43.72244" lon="6.16384">
        <ele>566</ele>
        <time>2022-04-10T12:18:15Z</time>
      </trkpt>
      <trkpt lat="43.72236" lon="6.1637">
        <ele>566.7</ele>
        <time>2022-04-10T12:18:27Z</time>
      </trkpt>
      <trkpt lat="43.72229" lon="6.16357">
        <ele>567.1</ele>
        <time>2022-04-10T12:18:38Z</time>
      </trkpt>
      <trkpt lat="43.72222" lon="6.16343">
        <ele>567.9</ele>
        <time>2022-04-10T12:18:50Z</time>
      </trkpt>
      <trkpt lat="43.72214" lon="6.16331">
        <ele>569</ele>
        <time>2022-04-10T12:19:00Z</time>
      </trkpt>
      <trkpt lat="43.72204" lon="6.16324">
        <ele>569.3</ele>
        <time>2022-04-10T12:19:09Z</time>
      </trkpt>
      <trkpt lat="43.72196" lon="6.16316">
        <ele>569.4</ele>
        <time>2022-04-10T12:19:20Z</time>
      </trkpt>
      <trkpt lat="43.72194" lon="6.16301">
        <ele>570.7</ele>
        <time>2022-04-10T12:19:34Z</time>
      </trkpt>
      <trkpt lat="43.72186" lon="6.16288">
        <ele>572.6</ele>
        <time>2022-04-10T12:19:46Z</time>
      </trkpt>
      <trkpt lat="43.72179" lon="6.16273">
        <ele>575.1</ele>
        <time>2022-04-10T12:19:57Z</time>
      </trkpt>
      <trkpt lat="43.72173" lon="6.16264">
        <ele>577</ele>
        <time>2022-04-10T12:20:12Z</time>
      </trkpt>
      <trkpt lat="43.72169" lon="6.16251">
        <ele>579.7</ele>
        <time>2022-04-10T12:20:28Z</time>
      </trkpt>
      <trkpt lat="43.7217" lon="6.16237">
        <ele>582.8</ele>
        <time>2022-04-10T12:20:50Z</time>
      </trkpt>
      <trkpt lat="43.72164" lon="6.1623">
        <ele>584.1</ele>
        <time>2022-04-10T12:33:16Z</time>
      </trkpt>
      <trkpt lat="43.72159" lon="6.16219">
        <ele>585.9</ele>
        <time>2022-04-10T12:33:32Z</time>
      </trkpt>
      <trkpt lat="43.72153" lon="6.16207">
        <ele>587.4</ele>
        <time>2022-04-10T12:33:45Z</time>
      </trkpt>
      <trkpt lat="43.72152" lon="6.16191">
        <ele>590.7</ele>
        <time>2022-04-10T12:34:03Z</time>
      </trkpt>
      <trkpt lat="43.72151" lon="6.16177">
        <ele>593.6</ele>
        <time>2022-04-10T12:34:17Z</time>
      </trkpt>
      <trkpt lat="43.72151" lon="6.16162">
        <ele>596.3</ele>
        <time>2022-04-10T12:34:32Z</time>
      </trkpt>
      <trkpt lat="43.7215" lon="6.16148">
        <ele>598</ele>
        <time>2022-04-10T12:34:46Z</time>
      </trkpt>
      <trkpt lat="43.72151" lon="6.16135">
        <ele>599.6</ele>
        <time>2022-04-10T12:34:59Z</time>
      </trkpt>
      <trkpt lat="43.72155" lon="6.16124">
        <ele>600.8</ele>
        <time>2022-04-10T12:35:12Z</time>
      </trkpt>
      <trkpt lat="43.72157" lon="6.16107">
        <ele>601.6</ele>
        <time>2022-04-10T12:35:25Z</time>
      </trkpt>
      <trkpt lat="43.7216" lon="6.16093">
        <ele>601.4</ele>
        <time>2022-04-10T12:35:37Z</time>
      </trkpt>
      <trkpt lat="43.7216" lon="6.16084">
        <ele>601.3</ele>
        <time>2022-04-10T12:36:29Z</time>
      </trkpt>
      <trkpt lat="43.7216" lon="6.16073">
        <ele>601</ele>
        <time>2022-04-10T12:37:10Z</time>
      </trkpt>
      <trkpt lat="43.72152" lon="6.1606">
        <ele>601.1</ele>
        <time>2022-04-10T12:37:21Z</time>
      </trkpt>
      <trkpt lat="43.72146" lon="6.16049">
        <ele>601</ele>
        <time>2022-04-10T12:37:32Z</time>
      </trkpt>
      <trkpt lat="43.7214" lon="6.16038">
        <ele>600.6</ele>
        <time>2022-04-10T12:37:56Z</time>
      </trkpt>
      <trkpt lat="43.72136" lon="6.16023">
        <ele>600.2</ele>
        <time>2022-04-10T12:38:08Z</time>
      </trkpt>
      <trkpt lat="43.72136" lon="6.16008">
        <ele>599.8</ele>
        <time>2022-04-10T12:38:21Z</time>
      </trkpt>
      <trkpt lat="43.72134" lon="6.15988">
        <ele>599.3</ele>
        <time>2022-04-10T12:38:34Z</time>
      </trkpt>
      <trkpt lat="43.72129" lon="6.15967">
        <ele>598.5</ele>
        <time>2022-04-10T12:38:46Z</time>
      </trkpt>
      <trkpt lat="43.7213" lon="6.15949">
        <ele>596.4</ele>
        <time>2022-04-10T12:39:00Z</time>
      </trkpt>
      <trkpt lat="43.7214" lon="6.1594">
        <ele>594.2</ele>
        <time>2022-04-10T12:39:11Z</time>
      </trkpt>
      <trkpt lat="43.72149" lon="6.15935">
        <ele>593.2</ele>
        <time>2022-04-10T12:39:22Z</time>
      </trkpt>
      <trkpt lat="43.72158" lon="6.15929">
        <ele>592</ele>
        <time>2022-04-10T12:39:32Z</time>
      </trkpt>
      <trkpt lat="43.72165" lon="6.15923">
        <ele>591</ele>
        <time>2022-04-10T12:39:40Z</time>
      </trkpt>
      <trkpt lat="43.72174" lon="6.15919">
        <ele>589.6</ele>
        <time>2022-04-10T12:39:49Z</time>
      </trkpt>
      <trkpt lat="43.72183" lon="6.15916">
        <ele>588.1</ele>
        <time>2022-04-10T12:39:57Z</time>
      </trkpt>
      <trkpt lat="43.72191" lon="6.15909">
        <ele>587.2</ele>
        <time>2022-04-10T12:40:06Z</time>
      </trkpt>
      <trkpt lat="43.72198" lon="6.15901">
        <ele>586.7</ele>
        <time>2022-04-10T12:40:16Z</time>
      </trkpt>
      <trkpt lat="43.72209" lon="6.15893">
        <ele>586.1</ele>
        <time>2022-04-10T12:40:27Z</time>
      </trkpt>
      <trkpt lat="43.72219" lon="6.15884">
        <ele>585.9</ele>
        <time>2022-04-10T12:40:36Z</time>
      </trkpt>
      <trkpt lat="43.72232" lon="6.15877">
        <ele>585.3</ele>
        <time>2022-04-10T12:40:47Z</time>
      </trkpt>
      <trkpt lat="43.72239" lon="6.15873">
        <ele>584.9</ele>
        <time>2022-04-10T12:40:55Z</time>
      </trkpt>
      <trkpt lat="43.72246" lon="6.15866">
        <ele>584.9</ele>
        <time>2022-04-10T12:41:03Z</time>
      </trkpt>
      <trkpt lat="43.72256" lon="6.15858">
        <ele>585.2</ele>
        <time>2022-04-10T12:41:13Z</time>
      </trkpt>
      <trkpt lat="43.72269" lon="6.15856">
        <ele>584.7</ele>
        <time>2022-04-10T12:41:24Z</time>
      </trkpt>
      <trkpt lat="43.7228" lon="6.15853">
        <ele>584.2</ele>
        <time>2022-04-10T12:41:33Z</time>
      </trkpt>
      <trkpt lat="43.7229" lon="6.15846">
        <ele>584.2</ele>
        <time>2022-04-10T12:41:42Z</time>
      </trkpt>
      <trkpt lat="43.72301" lon="6.15836">
        <ele>584.9</ele>
        <time>2022-04-10T12:41:52Z</time>
      </trkpt>
      <trkpt lat="43.72309" lon="6.15829">
        <ele>585.2</ele>
        <time>2022-04-10T12:42:01Z</time>
      </trkpt>
      <trkpt lat="43.72318" lon="6.1582">
        <ele>585.6</ele>
        <time>2022-04-10T12:42:10Z</time>
      </trkpt>
      <trkpt lat="43.72325" lon="6.15812">
        <ele>586</ele>
        <time>2022-04-10T12:42:20Z</time>
      </trkpt>
      <trkpt lat="43.72338" lon="6.1581">
        <ele>584.4</ele>
        <time>2022-04-10T12:42:29Z</time>
      </trkpt>
      <trkpt lat="43.72348" lon="6.15805">
        <ele>584</ele>
        <time>2022-04-10T12:42:37Z</time>
      </trkpt>
      <trkpt lat="43.72356" lon="6.15795">
        <ele>584.4</ele>
        <time>2022-04-10T12:42:45Z</time>
      </trkpt>
      <trkpt lat="43.72363" lon="6.15789">
        <ele>584.1</ele>
        <time>2022-04-10T12:42:53Z</time>
      </trkpt>
      <trkpt lat="43.72373" lon="6.15782">
        <ele>583.2</ele>
        <time>2022-04-10T12:43:03Z</time>
      </trkpt>
      <trkpt lat="43.72376" lon="6.15772">
        <ele>584.2</ele>
        <time>2022-04-10T12:43:15Z</time>
      </trkpt>
      <trkpt lat="43.72386" lon="6.15765">
        <ele>583</ele>
        <time>2022-04-10T12:43:26Z</time>
      </trkpt>
      <trkpt lat="43.72392" lon="6.15758">
        <ele>582.5</ele>
        <time>2022-04-10T12:43:39Z</time>
      </trkpt>
      <trkpt lat="43.72401" lon="6.15754">
        <ele>581</ele>
        <time>2022-04-10T12:43:49Z</time>
      </trkpt>
      <trkpt lat="43.72411" lon="6.15753">
        <ele>578.9</ele>
        <time>2022-04-10T12:43:58Z</time>
      </trkpt>
      <trkpt lat="43.72419" lon="6.1575">
        <ele>577.6</ele>
        <time>2022-04-10T12:44:08Z</time>
      </trkpt>
      <trkpt lat="43.72425" lon="6.15756">
        <ele>575.6</ele>
        <time>2022-04-10T12:44:24Z</time>
      </trkpt>
      <trkpt lat="43.72429" lon="6.15757">
        <ele>574.8</ele>
        <time>2022-04-10T12:44:57Z</time>
      </trkpt>
      <trkpt lat="43.72429" lon="6.15756">
        <ele>574.9</ele>
        <time>2022-04-10T12:45:32Z</time>
      </trkpt>
      <trkpt lat="43.72432" lon="6.15751">
        <ele>574.5</ele>
        <time>2022-04-10T12:45:59Z</time>
      </trkpt>
      <trkpt lat="43.72439" lon="6.15747">
        <ele>573.6</ele>
        <time>2022-04-10T12:46:13Z</time>
      </trkpt>
      <trkpt lat="43.72446" lon="6.1575">
        <ele>571.8</ele>
        <time>2022-04-10T12:46:23Z</time>
      </trkpt>
      <trkpt lat="43.72454" lon="6.15754">
        <ele>570.5</ele>
        <time>2022-04-10T12:46:34Z</time>
      </trkpt>
      <trkpt lat="43.72463" lon="6.15756">
        <ele>569</ele>
        <time>2022-04-10T12:46:45Z</time>
      </trkpt>
      <trkpt lat="43.72472" lon="6.15756">
        <ele>567.6</ele>
        <time>2022-04-10T12:46:57Z</time>
      </trkpt>
      <trkpt lat="43.72478" lon="6.1575">
        <ele>567.8</ele>
        <time>2022-04-10T12:47:12Z</time>
      </trkpt>
      <trkpt lat="43.72488" lon="6.15748">
        <ele>567.6</ele>
        <time>2022-04-10T12:47:24Z</time>
      </trkpt>
      <trkpt lat="43.725" lon="6.1575">
        <ele>567</ele>
        <time>2022-04-10T12:47:36Z</time>
      </trkpt>
      <trkpt lat="43.7251" lon="6.15753">
        <ele>567.5</ele>
        <time>2022-04-10T12:47:46Z</time>
      </trkpt>
      <trkpt lat="43.72519" lon="6.15757">
        <ele>568</ele>
        <time>2022-04-10T12:47:56Z</time>
      </trkpt>
      <trkpt lat="43.72529" lon="6.15765">
        <ele>568.6</ele>
        <time>2022-04-10T12:48:08Z</time>
      </trkpt>
      <trkpt lat="43.72539" lon="6.15771">
        <ele>569</ele>
        <time>2022-04-10T12:48:20Z</time>
      </trkpt>
      <trkpt lat="43.72547" lon="6.15772">
        <ele>569.6</ele>
        <time>2022-04-10T12:48:35Z</time>
      </trkpt>
      <trkpt lat="43.7255" lon="6.15765">
        <ele>570.1</ele>
        <time>2022-04-10T12:49:04Z</time>
      </trkpt>
      <trkpt lat="43.7255" lon="6.15751">
        <ele>570.6</ele>
        <time>2022-04-10T12:49:14Z</time>
      </trkpt>
      <trkpt lat="43.72549" lon="6.15735">
        <ele>571.2</ele>
        <time>2022-04-10T12:49:24Z</time>
      </trkpt>
      <trkpt lat="43.72546" lon="6.15723">
        <ele>571.6</ele>
        <time>2022-04-10T12:49:35Z</time>
      </trkpt>
      <trkpt lat="43.72542" lon="6.15711">
        <ele>571.9</ele>
        <time>2022-04-10T12:49:53Z</time>
      </trkpt>
      <trkpt lat="43.72537" lon="6.15698">
        <ele>572.2</ele>
        <time>2022-04-10T12:50:02Z</time>
      </trkpt>
      <trkpt lat="43.72535" lon="6.15685">
        <ele>572.5</ele>
        <time>2022-04-10T12:50:11Z</time>
      </trkpt>
      <trkpt lat="43.72532" lon="6.15671">
        <ele>572.9</ele>
        <time>2022-04-10T12:50:20Z</time>
      </trkpt>
      <trkpt lat="43.72529" lon="6.15657">
        <ele>573</ele>
        <time>2022-04-10T12:50:29Z</time>
      </trkpt>
      <trkpt lat="43.72526" lon="6.15642">
        <ele>573.1</ele>
        <time>2022-04-10T12:50:38Z</time>
      </trkpt>
      <trkpt lat="43.72523" lon="6.15629">
        <ele>573.2</ele>
        <time>2022-04-10T12:50:47Z</time>
      </trkpt>
      <trkpt lat="43.72519" lon="6.15616">
        <ele>573.6</ele>
        <time>2022-04-10T12:50:57Z</time>
      </trkpt>
      <trkpt lat="43.72509" lon="6.15609">
        <ele>574.4</ele>
        <time>2022-04-10T12:51:08Z</time>
      </trkpt>
      <trkpt lat="43.72501" lon="6.15601">
        <ele>575.3</ele>
        <time>2022-04-10T12:51:19Z</time>
      </trkpt>
      <trkpt lat="43.72492" lon="6.15601">
        <ele>576.4</ele>
        <time>2022-04-10T12:51:39Z</time>
      </trkpt>
      <trkpt lat="43.72491" lon="6.15599">
        <ele>576.5</ele>
        <time>2022-04-10T12:52:08Z</time>
      </trkpt>
      <trkpt lat="43.72482" lon="6.15592">
        <ele>578.1</ele>
        <time>2022-04-10T12:52:19Z</time>
      </trkpt>
      <trkpt lat="43.72474" lon="6.15585">
        <ele>579.6</ele>
        <time>2022-04-10T12:52:29Z</time>
      </trkpt>
      <trkpt lat="43.7247" lon="6.15576">
        <ele>581</ele>
        <time>2022-04-10T12:52:41Z</time>
      </trkpt>
      <trkpt lat="43.72465" lon="6.15582">
        <ele>581.7</ele>
        <time>2022-04-10T12:53:01Z</time>
      </trkpt>
      <trkpt lat="43.72457" lon="6.15573">
        <ele>583.9</ele>
        <time>2022-04-10T12:53:13Z</time>
      </trkpt>
      <trkpt lat="43.72447" lon="6.15569">
        <ele>586.4</ele>
        <time>2022-04-10T12:53:29Z</time>
      </trkpt>
      <trkpt lat="43.72438" lon="6.15562">
        <ele>588.3</ele>
        <time>2022-04-10T12:53:45Z</time>
      </trkpt>
      <trkpt lat="43.72429" lon="6.15557">
        <ele>589.6</ele>
        <time>2022-04-10T12:53:58Z</time>
      </trkpt>
      <trkpt lat="43.7242" lon="6.15553">
        <ele>590.8</ele>
        <time>2022-04-10T12:54:11Z</time>
      </trkpt>
      <trkpt lat="43.72412" lon="6.15558">
        <ele>591.5</ele>
        <time>2022-04-10T12:54:37Z</time>
      </trkpt>
      <trkpt lat="43.72404" lon="6.15561">
        <ele>592.6</ele>
        <time>2022-04-10T12:54:47Z</time>
      </trkpt>
      <trkpt lat="43.72395" lon="6.1556">
        <ele>593.9</ele>
        <time>2022-04-10T12:54:57Z</time>
      </trkpt>
      <trkpt lat="43.72384" lon="6.15561">
        <ele>595.1</ele>
        <time>2022-04-10T12:55:08Z</time>
      </trkpt>
      <trkpt lat="43.72372" lon="6.15562">
        <ele>596.4</ele>
        <time>2022-04-10T12:55:19Z</time>
      </trkpt>
      <trkpt lat="43.72362" lon="6.15561">
        <ele>597.5</ele>
        <time>2022-04-10T12:55:29Z</time>
      </trkpt>
      <trkpt lat="43.72354" lon="6.15561">
        <ele>599.3</ele>
        <time>2022-04-10T12:55:40Z</time>
      </trkpt>
      <trkpt lat="43.72344" lon="6.15564">
        <ele>601.2</ele>
        <time>2022-04-10T12:55:53Z</time>
      </trkpt>
      <trkpt lat="43.72333" lon="6.15566">
        <ele>603.7</ele>
        <time>2022-04-10T12:56:10Z</time>
      </trkpt>
      <trkpt lat="43.72325" lon="6.15566">
        <ele>606.5</ele>
        <time>2022-04-10T12:56:25Z</time>
      </trkpt>
      <trkpt lat="43.72313" lon="6.1556">
        <ele>610.6</ele>
        <time>2022-04-10T12:56:44Z</time>
      </trkpt>
      <trkpt lat="43.72304" lon="6.15557">
        <ele>613.7</ele>
        <time>2022-04-10T12:57:01Z</time>
      </trkpt>
      <trkpt lat="43.72295" lon="6.15553">
        <ele>617.7</ele>
        <time>2022-04-10T12:57:21Z</time>
      </trkpt>
      <trkpt lat="43.72285" lon="6.15551">
        <ele>621.6</ele>
        <time>2022-04-10T12:57:40Z</time>
      </trkpt>
      <trkpt lat="43.72278" lon="6.15542">
        <ele>625.3</ele>
        <time>2022-04-10T12:58:03Z</time>
      </trkpt>
      <trkpt lat="43.7227" lon="6.15536">
        <ele>629.2</ele>
        <time>2022-04-10T12:58:21Z</time>
      </trkpt>
      <trkpt lat="43.72262" lon="6.15529">
        <ele>632.8</ele>
        <time>2022-04-10T12:58:41Z</time>
      </trkpt>
      <trkpt lat="43.72256" lon="6.15522">
        <ele>635.7</ele>
        <time>2022-04-10T12:59:03Z</time>
      </trkpt>
      <trkpt lat="43.72255" lon="6.15515">
        <ele>637.3</ele>
        <time>2022-04-10T12:59:28Z</time>
      </trkpt>
      <trkpt lat="43.72247" lon="6.15509">
        <ele>640.9</ele>
        <time>2022-04-10T12:59:51Z</time>
      </trkpt>
      <trkpt lat="43.72242" lon="6.15501">
        <ele>644.1</ele>
        <time>2022-04-10T13:00:11Z</time>
      </trkpt>
      <trkpt lat="43.72236" lon="6.15493">
        <ele>648</ele>
        <time>2022-04-10T13:00:35Z</time>
      </trkpt>
      <trkpt lat="43.72227" lon="6.15487">
        <ele>651.5</ele>
        <time>2022-04-10T13:00:56Z</time>
      </trkpt>
      <trkpt lat="43.72229" lon="6.15484">
        <ele>651.5</ele>
        <time>2022-04-10T13:01:23Z</time>
      </trkpt>
      <trkpt lat="43.72232" lon="6.15485">
        <ele>650.4</ele>
        <time>2022-04-10T13:02:12Z</time>
      </trkpt>
      <trkpt lat="43.72229" lon="6.15486">
        <ele>651.1</ele>
        <time>2022-04-10T13:02:46Z</time>
      </trkpt>
      <trkpt lat="43.72229" lon="6.15488">
        <ele>650.9</ele>
        <time>2022-04-10T13:03:53Z</time>
      </trkpt>
      <trkpt lat="43.72231" lon="6.15486">
        <ele>650.7</ele>
        <time>2022-04-10T13:04:33Z</time>
      </trkpt>
      <trkpt lat="43.72222" lon="6.15481">
        <ele>653.6</ele>
        <time>2022-04-10T13:04:51Z</time>
      </trkpt>
      <trkpt lat="43.72213" lon="6.15472">
        <ele>657.8</ele>
        <time>2022-04-10T13:05:08Z</time>
      </trkpt>
      <trkpt lat="43.72206" lon="6.15463">
        <ele>661.5</ele>
        <time>2022-04-10T13:05:27Z</time>
      </trkpt>
      <trkpt lat="43.72201" lon="6.15451">
        <ele>664.3</ele>
        <time>2022-04-10T13:05:48Z</time>
      </trkpt>
      <trkpt lat="43.72192" lon="6.15444">
        <ele>666.6</ele>
        <time>2022-04-10T13:06:05Z</time>
      </trkpt>
      <trkpt lat="43.72184" lon="6.15437">
        <ele>669</ele>
        <time>2022-04-10T13:06:20Z</time>
      </trkpt>
      <trkpt lat="43.72178" lon="6.15434">
        <ele>670.6</ele>
        <time>2022-04-10T13:06:34Z</time>
      </trkpt>
      <trkpt lat="43.72171" lon="6.1543">
        <ele>672.2</ele>
        <time>2022-04-10T13:06:50Z</time>
      </trkpt>
      <trkpt lat="43.72163" lon="6.15424">
        <ele>673.6</ele>
        <time>2022-04-10T13:07:04Z</time>
      </trkpt>
      <trkpt lat="43.72153" lon="6.15421">
        <ele>675.2</ele>
        <time>2022-04-10T13:07:17Z</time>
      </trkpt>
      <trkpt lat="43.72143" lon="6.15417">
        <ele>677.3</ele>
        <time>2022-04-10T13:07:29Z</time>
      </trkpt>
      <trkpt lat="43.72134" lon="6.15413">
        <ele>678.3</ele>
        <time>2022-04-10T13:07:39Z</time>
      </trkpt>
      <trkpt lat="43.72124" lon="6.15408">
        <ele>679</ele>
        <time>2022-04-10T13:07:49Z</time>
      </trkpt>
      <trkpt lat="43.72115" lon="6.15403">
        <ele>679.7</ele>
        <time>2022-04-10T13:07:59Z</time>
      </trkpt>
      <trkpt lat="43.72107" lon="6.15398">
        <ele>680.8</ele>
        <time>2022-04-10T13:08:09Z</time>
      </trkpt>
      <trkpt lat="43.72097" lon="6.15393">
        <ele>682.2</ele>
        <time>2022-04-10T13:08:20Z</time>
      </trkpt>
      <trkpt lat="43.72085" lon="6.1539">
        <ele>683.7</ele>
        <time>2022-04-10T13:08:31Z</time>
      </trkpt>
      <trkpt lat="43.72072" lon="6.15389">
        <ele>684.8</ele>
        <time>2022-04-10T13:08:43Z</time>
      </trkpt>
      <trkpt lat="43.72063" lon="6.15381">
        <ele>685.9</ele>
        <time>2022-04-10T13:08:55Z</time>
      </trkpt>
      <trkpt lat="43.72054" lon="6.15376">
        <ele>687.1</ele>
        <time>2022-04-10T13:09:07Z</time>
      </trkpt>
      <trkpt lat="43.72044" lon="6.15372">
        <ele>689</ele>
        <time>2022-04-10T13:09:20Z</time>
      </trkpt>
      <trkpt lat="43.72033" lon="6.1537">
        <ele>690.6</ele>
        <time>2022-04-10T13:09:32Z</time>
      </trkpt>
      <trkpt lat="43.72024" lon="6.15366">
        <ele>692.2</ele>
        <time>2022-04-10T13:09:43Z</time>
      </trkpt>
      <trkpt lat="43.72015" lon="6.15361">
        <ele>693.9</ele>
        <time>2022-04-10T13:09:55Z</time>
      </trkpt>
      <trkpt lat="43.72005" lon="6.15359">
        <ele>695.4</ele>
        <time>2022-04-10T13:10:08Z</time>
      </trkpt>
      <trkpt lat="43.71994" lon="6.15354">
        <ele>697</ele>
        <time>2022-04-10T13:10:21Z</time>
      </trkpt>
      <trkpt lat="43.71983" lon="6.15352">
        <ele>698.5</ele>
        <time>2022-04-10T13:10:35Z</time>
      </trkpt>
      <trkpt lat="43.71973" lon="6.15349">
        <ele>700.2</ele>
        <time>2022-04-10T13:10:49Z</time>
      </trkpt>
      <trkpt lat="43.71963" lon="6.15343">
        <ele>702.3</ele>
        <time>2022-04-10T13:11:02Z</time>
      </trkpt>
      <trkpt lat="43.71952" lon="6.1534">
        <ele>704.3</ele>
        <time>2022-04-10T13:11:16Z</time>
      </trkpt>
      <trkpt lat="43.71944" lon="6.15341">
        <ele>705.3</ele>
        <time>2022-04-10T13:11:47Z</time>
      </trkpt>
      <trkpt lat="43.71934" lon="6.15337">
        <ele>707.2</ele>
        <time>2022-04-10T13:12:02Z</time>
      </trkpt>
      <trkpt lat="43.71922" lon="6.15332">
        <ele>709.3</ele>
        <time>2022-04-10T13:12:14Z</time>
      </trkpt>
      <trkpt lat="43.71912" lon="6.15327">
        <ele>711.3</ele>
        <time>2022-04-10T13:12:27Z</time>
      </trkpt>
      <trkpt lat="43.71902" lon="6.15321">
        <ele>713.4</ele>
        <time>2022-04-10T13:12:40Z</time>
      </trkpt>
      <trkpt lat="43.71893" lon="6.15317">
        <ele>715.2</ele>
        <time>2022-04-10T13:12:51Z</time>
      </trkpt>
      <trkpt lat="43.71884" lon="6.15311">
        <ele>716.8</ele>
        <time>2022-04-10T13:13:03Z</time>
      </trkpt>
      <trkpt lat="43.71875" lon="6.15305">
        <ele>718</ele>
        <time>2022-04-10T13:13:16Z</time>
      </trkpt>
      <trkpt lat="43.71863" lon="6.153">
        <ele>719.2</ele>
        <time>2022-04-10T13:13:28Z</time>
      </trkpt>
      <trkpt lat="43.71854" lon="6.15294">
        <ele>720</ele>
        <time>2022-04-10T13:13:40Z</time>
      </trkpt>
      <trkpt lat="43.71843" lon="6.1529">
        <ele>720.4</ele>
        <time>2022-04-10T13:13:50Z</time>
      </trkpt>
      <trkpt lat="43.71834" lon="6.15286">
        <ele>720.7</ele>
        <time>2022-04-10T13:14:00Z</time>
      </trkpt>
      <trkpt lat="43.71821" lon="6.15286">
        <ele>720.2</ele>
        <time>2022-04-10T13:14:09Z</time>
      </trkpt>
      <trkpt lat="43.71813" lon="6.1528">
        <ele>719.6</ele>
        <time>2022-04-10T13:14:19Z</time>
      </trkpt>
      <trkpt lat="43.71803" lon="6.15276">
        <ele>718.8</ele>
        <time>2022-04-10T13:14:29Z</time>
      </trkpt>
      <trkpt lat="43.71793" lon="6.15274">
        <ele>718.3</ele>
        <time>2022-04-10T13:14:38Z</time>
      </trkpt>
      <trkpt lat="43.71783" lon="6.15271">
        <ele>717.9</ele>
        <time>2022-04-10T13:14:49Z</time>
      </trkpt>
      <trkpt lat="43.71772" lon="6.15266">
        <ele>717.7</ele>
        <time>2022-04-10T13:15:01Z</time>
      </trkpt>
      <trkpt lat="43.71758" lon="6.15261">
        <ele>717.8</ele>
        <time>2022-04-10T13:15:12Z</time>
      </trkpt>
      <trkpt lat="43.71744" lon="6.15257">
        <ele>717.8</ele>
        <time>2022-04-10T13:15:23Z</time>
      </trkpt>
      <trkpt lat="43.71733" lon="6.15253">
        <ele>717.4</ele>
        <time>2022-04-10T13:15:34Z</time>
      </trkpt>
      <trkpt lat="43.71723" lon="6.15247">
        <ele>717.1</ele>
        <time>2022-04-10T13:15:45Z</time>
      </trkpt>
      <trkpt lat="43.71711" lon="6.15241">
        <ele>717.5</ele>
        <time>2022-04-10T13:15:57Z</time>
      </trkpt>
      <trkpt lat="43.71697" lon="6.15236">
        <ele>718</ele>
        <time>2022-04-10T13:16:09Z</time>
      </trkpt>
      <trkpt lat="43.71684" lon="6.1523">
        <ele>717.7</ele>
        <time>2022-04-10T13:16:19Z</time>
      </trkpt>
      <trkpt lat="43.71674" lon="6.15225">
        <ele>717.3</ele>
        <time>2022-04-10T13:16:29Z</time>
      </trkpt>
      <trkpt lat="43.71664" lon="6.15221">
        <ele>717</ele>
        <time>2022-04-10T13:16:39Z</time>
      </trkpt>
      <trkpt lat="43.71656" lon="6.15224">
        <ele>716.4</ele>
        <time>2022-04-10T13:16:54Z</time>
      </trkpt>
      <trkpt lat="43.71652" lon="6.15218">
        <ele>716.7</ele>
        <time>2022-04-10T13:17:36Z</time>
      </trkpt>
      <trkpt lat="43.71644" lon="6.15212">
        <ele>716.8</ele>
        <time>2022-04-10T13:18:08Z</time>
      </trkpt>
      <trkpt lat="43.71635" lon="6.15207">
        <ele>716.8</ele>
        <time>2022-04-10T13:18:17Z</time>
      </trkpt>
      <trkpt lat="43.71625" lon="6.15203">
        <ele>716.2</ele>
        <time>2022-04-10T13:18:27Z</time>
      </trkpt>
      <trkpt lat="43.71617" lon="6.15205">
        <ele>715.4</ele>
        <time>2022-04-10T13:18:45Z</time>
      </trkpt>
      <trkpt lat="43.71608" lon="6.15201">
        <ele>715</ele>
        <time>2022-04-10T13:18:54Z</time>
      </trkpt>
      <trkpt lat="43.71598" lon="6.15199">
        <ele>714.2</ele>
        <time>2022-04-10T13:19:03Z</time>
      </trkpt>
      <trkpt lat="43.71588" lon="6.15198">
        <ele>713.2</ele>
        <time>2022-04-10T13:19:12Z</time>
      </trkpt>
      <trkpt lat="43.71576" lon="6.15196">
        <ele>712.7</ele>
        <time>2022-04-10T13:19:20Z</time>
      </trkpt>
      <trkpt lat="43.71566" lon="6.15191">
        <ele>712.6</ele>
        <time>2022-04-10T13:19:29Z</time>
      </trkpt>
      <trkpt lat="43.71557" lon="6.15182">
        <ele>712.9</ele>
        <time>2022-04-10T13:19:38Z</time>
      </trkpt>
      <trkpt lat="43.71548" lon="6.15174">
        <ele>713.2</ele>
        <time>2022-04-10T13:19:46Z</time>
      </trkpt>
      <trkpt lat="43.71538" lon="6.15169">
        <ele>713.2</ele>
        <time>2022-04-10T13:19:54Z</time>
      </trkpt>
      <trkpt lat="43.71528" lon="6.15168">
        <ele>712.9</ele>
        <time>2022-04-10T13:20:02Z</time>
      </trkpt>
      <trkpt lat="43.71519" lon="6.15167">
        <ele>712.6</ele>
        <time>2022-04-10T13:20:09Z</time>
      </trkpt>
      <trkpt lat="43.71509" lon="6.15168">
        <ele>712.2</ele>
        <time>2022-04-10T13:20:17Z</time>
      </trkpt>
      <trkpt lat="43.71499" lon="6.15171">
        <ele>711.6</ele>
        <time>2022-04-10T13:20:25Z</time>
      </trkpt>
      <trkpt lat="43.71488" lon="6.15172">
        <ele>711.3</ele>
        <time>2022-04-10T13:20:33Z</time>
      </trkpt>
      <trkpt lat="43.71478" lon="6.15169">
        <ele>711.1</ele>
        <time>2022-04-10T13:20:42Z</time>
      </trkpt>
      <trkpt lat="43.71466" lon="6.15164">
        <ele>711.2</ele>
        <time>2022-04-10T13:20:51Z</time>
      </trkpt>
      <trkpt lat="43.71455" lon="6.15164">
        <ele>711.3</ele>
        <time>2022-04-10T13:21:00Z</time>
      </trkpt>
      <trkpt lat="43.71446" lon="6.15156">
        <ele>712.1</ele>
        <time>2022-04-10T13:21:09Z</time>
      </trkpt>
      <trkpt lat="43.71438" lon="6.15148">
        <ele>713</ele>
        <time>2022-04-10T13:21:17Z</time>
      </trkpt>
      <trkpt lat="43.71429" lon="6.15138">
        <ele>714.1</ele>
        <time>2022-04-10T13:21:25Z</time>
      </trkpt>
      <trkpt lat="43.71422" lon="6.1513">
        <ele>714.6</ele>
        <time>2022-04-10T13:21:34Z</time>
      </trkpt>
      <trkpt lat="43.71412" lon="6.15125">
        <ele>715.1</ele>
        <time>2022-04-10T13:21:43Z</time>
      </trkpt>
      <trkpt lat="43.71403" lon="6.15115">
        <ele>715.8</ele>
        <time>2022-04-10T13:21:53Z</time>
      </trkpt>
      <trkpt lat="43.71397" lon="6.15104">
        <ele>716.3</ele>
        <time>2022-04-10T13:22:03Z</time>
      </trkpt>
      <trkpt lat="43.71389" lon="6.15093">
        <ele>716.7</ele>
        <time>2022-04-10T13:22:13Z</time>
      </trkpt>
      <trkpt lat="43.71381" lon="6.15083">
        <ele>716.7</ele>
        <time>2022-04-10T13:22:26Z</time>
      </trkpt>
      <trkpt lat="43.71374" lon="6.15078">
        <ele>716.5</ele>
        <time>2022-04-10T13:23:08Z</time>
      </trkpt>
      <trkpt lat="43.71364" lon="6.15082">
        <ele>716.1</ele>
        <time>2022-04-10T13:23:19Z</time>
      </trkpt>
      <trkpt lat="43.71359" lon="6.15095">
        <ele>716.4</ele>
        <time>2022-04-10T13:23:27Z</time>
      </trkpt>
      <trkpt lat="43.71354" lon="6.15106">
        <ele>716.8</ele>
        <time>2022-04-10T13:23:36Z</time>
      </trkpt>
      <trkpt lat="43.71348" lon="6.15116">
        <ele>716.9</ele>
        <time>2022-04-10T13:23:44Z</time>
      </trkpt>
      <trkpt lat="43.71343" lon="6.15129">
        <ele>716.8</ele>
        <time>2022-04-10T13:23:52Z</time>
      </trkpt>
      <trkpt lat="43.71341" lon="6.15142">
        <ele>716.8</ele>
        <time>2022-04-10T13:23:59Z</time>
      </trkpt>
      <trkpt lat="43.71342" lon="6.15154">
        <ele>716.9</ele>
        <time>2022-04-10T13:24:07Z</time>
      </trkpt>
      <trkpt lat="43.71342" lon="6.15168">
        <ele>717</ele>
        <time>2022-04-10T13:24:15Z</time>
      </trkpt>
      <trkpt lat="43.71341" lon="6.15182">
        <ele>716.8</ele>
        <time>2022-04-10T13:24:23Z</time>
      </trkpt>
      <trkpt lat="43.7134" lon="6.15197">
        <ele>716.5</ele>
        <time>2022-04-10T13:24:31Z</time>
      </trkpt>
      <trkpt lat="43.71338" lon="6.1521">
        <ele>716.6</ele>
        <time>2022-04-10T13:24:39Z</time>
      </trkpt>
      <trkpt lat="43.71335" lon="6.15224">
        <ele>716.9</ele>
        <time>2022-04-10T13:24:48Z</time>
      </trkpt>
      <trkpt lat="43.71329" lon="6.1524">
        <ele>717.2</ele>
        <time>2022-04-10T13:24:57Z</time>
      </trkpt>
      <trkpt lat="43.71323" lon="6.15255">
        <ele>717.2</ele>
        <time>2022-04-10T13:25:07Z</time>
      </trkpt>
      <trkpt lat="43.71316" lon="6.15268">
        <ele>716.9</ele>
        <time>2022-04-10T13:25:17Z</time>
      </trkpt>
      <trkpt lat="43.71309" lon="6.15283">
        <ele>716.7</ele>
        <time>2022-04-10T13:25:26Z</time>
      </trkpt>
      <trkpt lat="43.71304" lon="6.15295">
        <ele>716.4</ele>
        <time>2022-04-10T13:25:35Z</time>
      </trkpt>
      <trkpt lat="43.71298" lon="6.15308">
        <ele>715.9</ele>
        <time>2022-04-10T13:25:44Z</time>
      </trkpt>
      <trkpt lat="43.7129" lon="6.15322">
        <ele>715.1</ele>
        <time>2022-04-10T13:25:53Z</time>
      </trkpt>
      <trkpt lat="43.71284" lon="6.15333">
        <ele>714.3</ele>
        <time>2022-04-10T13:26:01Z</time>
      </trkpt>
      <trkpt lat="43.71279" lon="6.15344">
        <ele>713.7</ele>
        <time>2022-04-10T13:26:09Z</time>
      </trkpt>
      <trkpt lat="43.71273" lon="6.15356">
        <ele>713</ele>
        <time>2022-04-10T13:26:18Z</time>
      </trkpt>
      <trkpt lat="43.71267" lon="6.1537">
        <ele>712.2</ele>
        <time>2022-04-10T13:26:27Z</time>
      </trkpt>
      <trkpt lat="43.71261" lon="6.15382">
        <ele>711.2</ele>
        <time>2022-04-10T13:26:35Z</time>
      </trkpt>
      <trkpt lat="43.71256" lon="6.15393">
        <ele>710.5</ele>
        <time>2022-04-10T13:26:43Z</time>
      </trkpt>
      <trkpt lat="43.71249" lon="6.15404">
        <ele>710.5</ele>
        <time>2022-04-10T13:26:52Z</time>
      </trkpt>
      <trkpt lat="43.71242" lon="6.15416">
        <ele>710.1</ele>
        <time>2022-04-10T13:27:00Z</time>
      </trkpt>
      <trkpt lat="43.71236" lon="6.15428">
        <ele>709.7</ele>
        <time>2022-04-10T13:27:08Z</time>
      </trkpt>
      <trkpt lat="43.7123" lon="6.15439">
        <ele>709.4</ele>
        <time>2022-04-10T13:27:17Z</time>
      </trkpt>
      <trkpt lat="43.71222" lon="6.1545">
        <ele>709.4</ele>
        <time>2022-04-10T13:27:26Z</time>
      </trkpt>
      <trkpt lat="43.71216" lon="6.15462">
        <ele>710.1</ele>
        <time>2022-04-10T13:27:34Z</time>
      </trkpt>
      <trkpt lat="43.7121" lon="6.15472">
        <ele>710.6</ele>
        <time>2022-04-10T13:27:42Z</time>
      </trkpt>
      <trkpt lat="43.71205" lon="6.15483">
        <ele>711.2</ele>
        <time>2022-04-10T13:27:50Z</time>
      </trkpt>
      <trkpt lat="43.71202" lon="6.15495">
        <ele>711.9</ele>
        <time>2022-04-10T13:27:58Z</time>
      </trkpt>
      <trkpt lat="43.71199" lon="6.15507">
        <ele>712.6</ele>
        <time>2022-04-10T13:28:07Z</time>
      </trkpt>
      <trkpt lat="43.71197" lon="6.1552">
        <ele>713.4</ele>
        <time>2022-04-10T13:28:19Z</time>
      </trkpt>
      <trkpt lat="43.71191" lon="6.15535">
        <ele>714.3</ele>
        <time>2022-04-10T13:28:30Z</time>
      </trkpt>
      <trkpt lat="43.71185" lon="6.15546">
        <ele>714.9</ele>
        <time>2022-04-10T13:28:40Z</time>
      </trkpt>
      <trkpt lat="43.71179" lon="6.15559">
        <ele>715.7</ele>
        <time>2022-04-10T13:28:49Z</time>
      </trkpt>
      <trkpt lat="43.71173" lon="6.15575">
        <ele>716.5</ele>
        <time>2022-04-10T13:28:59Z</time>
      </trkpt>
      <trkpt lat="43.71169" lon="6.15589">
        <ele>717.3</ele>
        <time>2022-04-10T13:29:08Z</time>
      </trkpt>
      <trkpt lat="43.71163" lon="6.15602">
        <ele>718.5</ele>
        <time>2022-04-10T13:29:19Z</time>
      </trkpt>
      <trkpt lat="43.71157" lon="6.15616">
        <ele>719.6</ele>
        <time>2022-04-10T13:29:32Z</time>
      </trkpt>
      <trkpt lat="43.71152" lon="6.1563">
        <ele>720.5</ele>
        <time>2022-04-10T13:29:44Z</time>
      </trkpt>
      <trkpt lat="43.71148" lon="6.15644">
        <ele>721.5</ele>
        <time>2022-04-10T13:29:55Z</time>
      </trkpt>
      <trkpt lat="43.71143" lon="6.15657">
        <ele>722.4</ele>
        <time>2022-04-10T13:30:06Z</time>
      </trkpt>
      <trkpt lat="43.71138" lon="6.15671">
        <ele>723.4</ele>
        <time>2022-04-10T13:30:16Z</time>
      </trkpt>
      <trkpt lat="43.71132" lon="6.15685">
        <ele>724.8</ele>
        <time>2022-04-10T13:30:26Z</time>
      </trkpt>
      <trkpt lat="43.71129" lon="6.15697">
        <ele>725.8</ele>
        <time>2022-04-10T13:30:35Z</time>
      </trkpt>
      <trkpt lat="43.71128" lon="6.15711">
        <ele>726.6</ele>
        <time>2022-04-10T13:30:44Z</time>
      </trkpt>
      <trkpt lat="43.71124" lon="6.15726">
        <ele>727.7</ele>
        <time>2022-04-10T13:30:54Z</time>
      </trkpt>
      <trkpt lat="43.71123" lon="6.15741">
        <ele>728.7</ele>
        <time>2022-04-10T13:31:03Z</time>
      </trkpt>
      <trkpt lat="43.7112" lon="6.15755">
        <ele>729.7</ele>
        <time>2022-04-10T13:31:12Z</time>
      </trkpt>
      <trkpt lat="43.71117" lon="6.15769">
        <ele>730.8</ele>
        <time>2022-04-10T13:31:21Z</time>
      </trkpt>
      <trkpt lat="43.71111" lon="6.15784">
        <ele>732.2</ele>
        <time>2022-04-10T13:31:32Z</time>
      </trkpt>
      <trkpt lat="43.71107" lon="6.15801">
        <ele>733.1</ele>
        <time>2022-04-10T13:31:45Z</time>
      </trkpt>
      <trkpt lat="43.71102" lon="6.15817">
        <ele>733.7</ele>
        <time>2022-04-10T13:31:56Z</time>
      </trkpt>
      <trkpt lat="43.71096" lon="6.1583">
        <ele>734.1</ele>
        <time>2022-04-10T13:32:07Z</time>
      </trkpt>
      <trkpt lat="43.71092" lon="6.15842">
        <ele>734.6</ele>
        <time>2022-04-10T13:32:17Z</time>
      </trkpt>
      <trkpt lat="43.71089" lon="6.15855">
        <ele>735.3</ele>
        <time>2022-04-10T13:32:27Z</time>
      </trkpt>
      <trkpt lat="43.71084" lon="6.1587">
        <ele>735.9</ele>
        <time>2022-04-10T13:32:37Z</time>
      </trkpt>
      <trkpt lat="43.7108" lon="6.15884">
        <ele>736.1</ele>
        <time>2022-04-10T13:32:46Z</time>
      </trkpt>
      <trkpt lat="43.7108" lon="6.15893">
        <ele>736</ele>
        <time>2022-04-10T13:32:59Z</time>
      </trkpt>
      <trkpt lat="43.71075" lon="6.15906">
        <ele>735.8</ele>
        <time>2022-04-10T13:33:08Z</time>
      </trkpt>
      <trkpt lat="43.71072" lon="6.15919">
        <ele>735.8</ele>
        <time>2022-04-10T13:33:15Z</time>
      </trkpt>
      <trkpt lat="43.71068" lon="6.15931">
        <ele>735.6</ele>
        <time>2022-04-10T13:33:23Z</time>
      </trkpt>
      <trkpt lat="43.71062" lon="6.15944">
        <ele>735.5</ele>
        <time>2022-04-10T13:33:32Z</time>
      </trkpt>
      <trkpt lat="43.71055" lon="6.15957">
        <ele>736</ele>
        <time>2022-04-10T13:33:40Z</time>
      </trkpt>
      <trkpt lat="43.7105" lon="6.15969">
        <ele>736.2</ele>
        <time>2022-04-10T13:33:49Z</time>
      </trkpt>
      <trkpt lat="43.71043" lon="6.15981">
        <ele>736.1</ele>
        <time>2022-04-10T13:33:59Z</time>
      </trkpt>
      <trkpt lat="43.71035" lon="6.15994">
        <ele>736</ele>
        <time>2022-04-10T13:34:08Z</time>
      </trkpt>
      <trkpt lat="43.71028" lon="6.16006">
        <ele>736</ele>
        <time>2022-04-10T13:34:19Z</time>
      </trkpt>
      <trkpt lat="43.71021" lon="6.16017">
        <ele>736.3</ele>
        <time>2022-04-10T13:34:28Z</time>
      </trkpt>
      <trkpt lat="43.71014" lon="6.16031">
        <ele>736.4</ele>
        <time>2022-04-10T13:34:38Z</time>
      </trkpt>
      <trkpt lat="43.71009" lon="6.16045">
        <ele>736.5</ele>
        <time>2022-04-10T13:34:48Z</time>
      </trkpt>
      <trkpt lat="43.71004" lon="6.16058">
        <ele>736.7</ele>
        <time>2022-04-10T13:35:02Z</time>
      </trkpt>
      <trkpt lat="43.70997" lon="6.16069">
        <ele>737.2</ele>
        <time>2022-04-10T13:35:13Z</time>
      </trkpt>
      <trkpt lat="43.70992" lon="6.16079">
        <ele>737.5</ele>
        <time>2022-04-10T13:35:20Z</time>
      </trkpt>
      <trkpt lat="43.70987" lon="6.16087">
        <ele>737.9</ele>
        <time>2022-04-10T13:35:28Z</time>
      </trkpt>
      <trkpt lat="43.70983" lon="6.16096">
        <ele>738.2</ele>
        <time>2022-04-10T13:35:41Z</time>
      </trkpt>
      <trkpt lat="43.70976" lon="6.16109">
        <ele>738.7</ele>
        <time>2022-04-10T13:36:01Z</time>
      </trkpt>
      <trkpt lat="43.7097" lon="6.16118">
        <ele>739.2</ele>
        <time>2022-04-10T13:36:10Z</time>
      </trkpt>
      <trkpt lat="43.70962" lon="6.16129">
        <ele>739.9</ele>
        <time>2022-04-10T13:36:20Z</time>
      </trkpt>
      <trkpt lat="43.70956" lon="6.1614">
        <ele>740.8</ele>
        <time>2022-04-10T13:36:30Z</time>
      </trkpt>
      <trkpt lat="43.7095" lon="6.16153">
        <ele>741.9</ele>
        <time>2022-04-10T13:36:39Z</time>
      </trkpt>
      <trkpt lat="43.70944" lon="6.16163">
        <ele>742.9</ele>
        <time>2022-04-10T13:36:48Z</time>
      </trkpt>
      <trkpt lat="43.70938" lon="6.16172">
        <ele>743.7</ele>
        <time>2022-04-10T13:36:58Z</time>
      </trkpt>
      <trkpt lat="43.70931" lon="6.16183">
        <ele>744.6</ele>
        <time>2022-04-10T13:37:08Z</time>
      </trkpt>
      <trkpt lat="43.70924" lon="6.16196">
        <ele>745.6</ele>
        <time>2022-04-10T13:37:19Z</time>
      </trkpt>
      <trkpt lat="43.70918" lon="6.16207">
        <ele>746.8</ele>
        <time>2022-04-10T13:37:29Z</time>
      </trkpt>
      <trkpt lat="43.70914" lon="6.1622">
        <ele>748</ele>
        <time>2022-04-10T13:37:38Z</time>
      </trkpt>
      <trkpt lat="43.70908" lon="6.1623">
        <ele>749</ele>
        <time>2022-04-10T13:37:48Z</time>
      </trkpt>
      <trkpt lat="43.70902" lon="6.16242">
        <ele>750.1</ele>
        <time>2022-04-10T13:37:58Z</time>
      </trkpt>
      <trkpt lat="43.70897" lon="6.16253">
        <ele>751.3</ele>
        <time>2022-04-10T13:38:08Z</time>
      </trkpt>
      <trkpt lat="43.70893" lon="6.16263">
        <ele>752.5</ele>
        <time>2022-04-10T13:38:18Z</time>
      </trkpt>
      <trkpt lat="43.70885" lon="6.16272">
        <ele>753.8</ele>
        <time>2022-04-10T13:38:30Z</time>
      </trkpt>
      <trkpt lat="43.70877" lon="6.1628">
        <ele>755</ele>
        <time>2022-04-10T13:38:44Z</time>
      </trkpt>
      <trkpt lat="43.70871" lon="6.1629">
        <ele>756</ele>
        <time>2022-04-10T13:38:56Z</time>
      </trkpt>
      <trkpt lat="43.70864" lon="6.16294">
        <ele>756.9</ele>
        <time>2022-04-10T13:39:25Z</time>
      </trkpt>
      <trkpt lat="43.70862" lon="6.16291">
        <ele>756.8</ele>
        <time>2022-04-10T13:40:12Z</time>
      </trkpt>
      <trkpt lat="43.70861" lon="6.163">
        <ele>757.6</ele>
        <time>2022-04-10T13:41:09Z</time>
      </trkpt>
      <trkpt lat="43.70855" lon="6.16312">
        <ele>759.2</ele>
        <time>2022-04-10T13:41:23Z</time>
      </trkpt>
      <trkpt lat="43.7085" lon="6.16324">
        <ele>760.8</ele>
        <time>2022-04-10T13:41:37Z</time>
      </trkpt>
      <trkpt lat="43.70844" lon="6.16336">
        <ele>762.4</ele>
        <time>2022-04-10T13:41:50Z</time>
      </trkpt>
      <trkpt lat="43.70838" lon="6.1635">
        <ele>763.8</ele>
        <time>2022-04-10T13:42:05Z</time>
      </trkpt>
      <trkpt lat="43.70832" lon="6.1636">
        <ele>765</ele>
        <time>2022-04-10T13:42:24Z</time>
      </trkpt>
      <trkpt lat="43.70826" lon="6.16373">
        <ele>766.8</ele>
        <time>2022-04-10T13:42:42Z</time>
      </trkpt>
      <trkpt lat="43.70821" lon="6.16385">
        <ele>768.5</ele>
        <time>2022-04-10T13:42:56Z</time>
      </trkpt>
      <trkpt lat="43.70817" lon="6.16399">
        <ele>769.9</ele>
        <time>2022-04-10T13:43:09Z</time>
      </trkpt>
      <trkpt lat="43.70812" lon="6.16413">
        <ele>771.3</ele>
        <time>2022-04-10T13:43:22Z</time>
      </trkpt>
      <trkpt lat="43.70808" lon="6.16426">
        <ele>772.5</ele>
        <time>2022-04-10T13:43:35Z</time>
      </trkpt>
      <trkpt lat="43.70803" lon="6.1644">
        <ele>773.9</ele>
        <time>2022-04-10T13:43:49Z</time>
      </trkpt>
      <trkpt lat="43.70799" lon="6.16453">
        <ele>775.1</ele>
        <time>2022-04-10T13:44:01Z</time>
      </trkpt>
      <trkpt lat="43.70792" lon="6.16465">
        <ele>776.4</ele>
        <time>2022-04-10T13:44:14Z</time>
      </trkpt>
      <trkpt lat="43.70783" lon="6.16468">
        <ele>777.3</ele>
        <time>2022-04-10T13:44:26Z</time>
      </trkpt>
      <trkpt lat="43.70774" lon="6.16475">
        <ele>778.3</ele>
        <time>2022-04-10T13:44:39Z</time>
      </trkpt>
      <trkpt lat="43.70769" lon="6.1649">
        <ele>779.6</ele>
        <time>2022-04-10T13:44:59Z</time>
      </trkpt>
      <trkpt lat="43.70764" lon="6.16501">
        <ele>780.6</ele>
        <time>2022-04-10T13:45:12Z</time>
      </trkpt>
      <trkpt lat="43.70763" lon="6.16516">
        <ele>781.7</ele>
        <time>2022-04-10T13:45:29Z</time>
      </trkpt>
      <trkpt lat="43.70762" lon="6.16531">
        <ele>782.7</ele>
        <time>2022-04-10T13:45:48Z</time>
      </trkpt>
      <trkpt lat="43.70762" lon="6.16533">
        <ele>782.8</ele>
        <time>2022-04-10T13:47:06Z</time>
      </trkpt>
      <trkpt lat="43.7076" lon="6.16534">
        <ele>782.9</ele>
        <time>2022-04-10T13:48:14Z</time>
      </trkpt>
      <trkpt lat="43.7076" lon="6.16531">
        <ele>782.8</ele>
        <time>2022-04-10T13:49:16Z</time>
      </trkpt>
      <trkpt lat="43.70757" lon="6.16522">
        <ele>782.3</ele>
        <time>2022-04-10T13:49:37Z</time>
      </trkpt>
      <trkpt lat="43.70754" lon="6.16511">
        <ele>781.6</ele>
        <time>2022-04-10T13:49:51Z</time>
      </trkpt>
      <trkpt lat="43.70749" lon="6.16499">
        <ele>781</ele>
        <time>2022-04-10T13:50:05Z</time>
      </trkpt>
      <trkpt lat="43.70741" lon="6.16492">
        <ele>780.3</ele>
        <time>2022-04-10T13:50:16Z</time>
      </trkpt>
      <trkpt lat="43.70733" lon="6.16496">
        <ele>780.6</ele>
        <time>2022-04-10T13:50:40Z</time>
      </trkpt>
      <trkpt lat="43.70725" lon="6.16499">
        <ele>780.9</ele>
        <time>2022-04-10T13:50:49Z</time>
      </trkpt>
      <trkpt lat="43.70717" lon="6.16504">
        <ele>780.9</ele>
        <time>2022-04-10T13:50:57Z</time>
      </trkpt>
      <trkpt lat="43.70709" lon="6.16511">
        <ele>781</ele>
        <time>2022-04-10T13:51:06Z</time>
      </trkpt>
      <trkpt lat="43.70699" lon="6.16514">
        <ele>780.8</ele>
        <time>2022-04-10T13:51:14Z</time>
      </trkpt>
      <trkpt lat="43.7069" lon="6.16519">
        <ele>780.8</ele>
        <time>2022-04-10T13:51:23Z</time>
      </trkpt>
      <trkpt lat="43.70682" lon="6.16525">
        <ele>780.8</ele>
        <time>2022-04-10T13:51:33Z</time>
      </trkpt>
      <trkpt lat="43.70674" lon="6.16532">
        <ele>780.5</ele>
        <time>2022-04-10T13:51:44Z</time>
      </trkpt>
      <trkpt lat="43.70666" lon="6.16539">
        <ele>779.9</ele>
        <time>2022-04-10T13:52:17Z</time>
      </trkpt>
      <trkpt lat="43.70658" lon="6.16547">
        <ele>779.5</ele>
        <time>2022-04-10T13:52:33Z</time>
      </trkpt>
      <trkpt lat="43.70651" lon="6.16556">
        <ele>779.4</ele>
        <time>2022-04-10T13:52:44Z</time>
      </trkpt>
      <trkpt lat="43.70647" lon="6.16562">
        <ele>778.6</ele>
        <time>2022-04-10T13:53:11Z</time>
      </trkpt>
      <trkpt lat="43.70642" lon="6.16562">
        <ele>778.6</ele>
        <time>2022-04-10T13:53:57Z</time>
      </trkpt>
      <trkpt lat="43.70634" lon="6.16565">
        <ele>777.8</ele>
        <time>2022-04-10T13:54:06Z</time>
      </trkpt>
      <trkpt lat="43.70627" lon="6.16576">
        <ele>777.1</ele>
        <time>2022-04-10T13:54:15Z</time>
      </trkpt>
      <trkpt lat="43.7062" lon="6.16583">
        <ele>777</ele>
        <time>2022-04-10T13:54:27Z</time>
      </trkpt>
      <trkpt lat="43.7061" lon="6.16589">
        <ele>775.9</ele>
        <time>2022-04-10T13:54:43Z</time>
      </trkpt>
      <trkpt lat="43.706" lon="6.16591">
        <ele>775.1</ele>
        <time>2022-04-10T13:54:54Z</time>
      </trkpt>
      <trkpt lat="43.7059" lon="6.16594">
        <ele>774.6</ele>
        <time>2022-04-10T13:55:05Z</time>
      </trkpt>
      <trkpt lat="43.70578" lon="6.16598">
        <ele>774.5</ele>
        <time>2022-04-10T13:55:15Z</time>
      </trkpt>
      <trkpt lat="43.70568" lon="6.16603">
        <ele>774.8</ele>
        <time>2022-04-10T13:55:25Z</time>
      </trkpt>
      <trkpt lat="43.70559" lon="6.16606">
        <ele>775.2</ele>
        <time>2022-04-10T13:55:34Z</time>
      </trkpt>
      <trkpt lat="43.70549" lon="6.1661">
        <ele>775.8</ele>
        <time>2022-04-10T13:55:44Z</time>
      </trkpt>
      <trkpt lat="43.70538" lon="6.16612">
        <ele>776</ele>
        <time>2022-04-10T13:55:54Z</time>
      </trkpt>
      <trkpt lat="43.70528" lon="6.16616">
        <ele>776.3</ele>
        <time>2022-04-10T13:56:04Z</time>
      </trkpt>
      <trkpt lat="43.70516" lon="6.1662">
        <ele>776.7</ele>
        <time>2022-04-10T13:56:14Z</time>
      </trkpt>
      <trkpt lat="43.70506" lon="6.16622">
        <ele>777.1</ele>
        <time>2022-04-10T13:56:23Z</time>
      </trkpt>
      <trkpt lat="43.70496" lon="6.16626">
        <ele>777.6</ele>
        <time>2022-04-10T13:56:32Z</time>
      </trkpt>
      <trkpt lat="43.70487" lon="6.16632">
        <ele>778.2</ele>
        <time>2022-04-10T13:56:40Z</time>
      </trkpt>
      <trkpt lat="43.70477" lon="6.16639">
        <ele>779</ele>
        <time>2022-04-10T13:56:49Z</time>
      </trkpt>
      <trkpt lat="43.70469" lon="6.16646">
        <ele>779.3</ele>
        <time>2022-04-10T13:56:57Z</time>
      </trkpt>
      <trkpt lat="43.70461" lon="6.16655">
        <ele>779.6</ele>
        <time>2022-04-10T13:57:05Z</time>
      </trkpt>
      <trkpt lat="43.70453" lon="6.16664">
        <ele>779.9</ele>
        <time>2022-04-10T13:57:14Z</time>
      </trkpt>
      <trkpt lat="43.70446" lon="6.16673">
        <ele>780.2</ele>
        <time>2022-04-10T13:57:22Z</time>
      </trkpt>
      <trkpt lat="43.70439" lon="6.16685">
        <ele>780.4</ele>
        <time>2022-04-10T13:57:30Z</time>
      </trkpt>
      <trkpt lat="43.70432" lon="6.16695">
        <ele>780.5</ele>
        <time>2022-04-10T13:57:39Z</time>
      </trkpt>
      <trkpt lat="43.70424" lon="6.16704">
        <ele>780.4</ele>
        <time>2022-04-10T13:57:47Z</time>
      </trkpt>
      <trkpt lat="43.70418" lon="6.16712">
        <ele>780.6</ele>
        <time>2022-04-10T13:57:54Z</time>
      </trkpt>
      <trkpt lat="43.70411" lon="6.1672">
        <ele>780.5</ele>
        <time>2022-04-10T13:58:03Z</time>
      </trkpt>
      <trkpt lat="43.70403" lon="6.16727">
        <ele>779.9</ele>
        <time>2022-04-10T13:58:11Z</time>
      </trkpt>
      <trkpt lat="43.70396" lon="6.16735">
        <ele>779.6</ele>
        <time>2022-04-10T13:58:19Z</time>
      </trkpt>
      <trkpt lat="43.70388" lon="6.16743">
        <ele>779.6</ele>
        <time>2022-04-10T13:58:27Z</time>
      </trkpt>
      <trkpt lat="43.70379" lon="6.16749">
        <ele>779.2</ele>
        <time>2022-04-10T13:58:36Z</time>
      </trkpt>
      <trkpt lat="43.70369" lon="6.16756">
        <ele>778.4</ele>
        <time>2022-04-10T13:58:45Z</time>
      </trkpt>
      <trkpt lat="43.7036" lon="6.16765">
        <ele>778.5</ele>
        <time>2022-04-10T13:58:54Z</time>
      </trkpt>
      <trkpt lat="43.70352" lon="6.16773">
        <ele>778.4</ele>
        <time>2022-04-10T13:59:03Z</time>
      </trkpt>
      <trkpt lat="43.70344" lon="6.1678">
        <ele>778.5</ele>
        <time>2022-04-10T13:59:11Z</time>
      </trkpt>
      <trkpt lat="43.70336" lon="6.16789">
        <ele>779.1</ele>
        <time>2022-04-10T13:59:21Z</time>
      </trkpt>
      <trkpt lat="43.70328" lon="6.16796">
        <ele>779.8</ele>
        <time>2022-04-10T13:59:29Z</time>
      </trkpt>
      <trkpt lat="43.70319" lon="6.16804">
        <ele>780.3</ele>
        <time>2022-04-10T13:59:38Z</time>
      </trkpt>
      <trkpt lat="43.7031" lon="6.16812">
        <ele>780.4</ele>
        <time>2022-04-10T13:59:48Z</time>
      </trkpt>
      <trkpt lat="43.70302" lon="6.16822">
        <ele>781.3</ele>
        <time>2022-04-10T13:59:57Z</time>
      </trkpt>
      <trkpt lat="43.70295" lon="6.1683">
        <ele>782.1</ele>
        <time>2022-04-10T14:00:06Z</time>
      </trkpt>
      <trkpt lat="43.70288" lon="6.16839">
        <ele>782.3</ele>
        <time>2022-04-10T14:00:17Z</time>
      </trkpt>
      <trkpt lat="43.7028" lon="6.16848">
        <ele>783.1</ele>
        <time>2022-04-10T14:00:27Z</time>
      </trkpt>
      <trkpt lat="43.70272" lon="6.16857">
        <ele>784.3</ele>
        <time>2022-04-10T14:00:37Z</time>
      </trkpt>
      <trkpt lat="43.70265" lon="6.16869">
        <ele>784</ele>
        <time>2022-04-10T14:00:47Z</time>
      </trkpt>
      <trkpt lat="43.70258" lon="6.16879">
        <ele>784.9</ele>
        <time>2022-04-10T14:01:04Z</time>
      </trkpt>
      <trkpt lat="43.70256" lon="6.16879">
        <ele>785.2</ele>
        <time>2022-04-10T14:01:48Z</time>
      </trkpt>
      <trkpt lat="43.7025" lon="6.16884">
        <ele>786.9</ele>
        <time>2022-04-10T14:02:30Z</time>
      </trkpt>
      <trkpt lat="43.7024" lon="6.16896">
        <ele>786.6</ele>
        <time>2022-04-10T14:02:40Z</time>
      </trkpt>
      <trkpt lat="43.70234" lon="6.16902">
        <ele>786.9</ele>
        <time>2022-04-10T14:02:49Z</time>
      </trkpt>
      <trkpt lat="43.70226" lon="6.1691">
        <ele>788</ele>
        <time>2022-04-10T14:02:58Z</time>
      </trkpt>
      <trkpt lat="43.70219" lon="6.16919">
        <ele>788.8</ele>
        <time>2022-04-10T14:03:07Z</time>
      </trkpt>
      <trkpt lat="43.70211" lon="6.16926">
        <ele>788.4</ele>
        <time>2022-04-10T14:03:15Z</time>
      </trkpt>
      <trkpt lat="43.70205" lon="6.16935">
        <ele>788.3</ele>
        <time>2022-04-10T14:03:24Z</time>
      </trkpt>
      <trkpt lat="43.70197" lon="6.16942">
        <ele>788.8</ele>
        <time>2022-04-10T14:03:33Z</time>
      </trkpt>
      <trkpt lat="43.70187" lon="6.16948">
        <ele>788.8</ele>
        <time>2022-04-10T14:03:42Z</time>
      </trkpt>
      <trkpt lat="43.70178" lon="6.16953">
        <ele>788.6</ele>
        <time>2022-04-10T14:03:51Z</time>
      </trkpt>
      <trkpt lat="43.7017" lon="6.1696">
        <ele>788.4</ele>
        <time>2022-04-10T14:04:02Z</time>
      </trkpt>
      <trkpt lat="43.7016" lon="6.16965">
        <ele>788.1</ele>
        <time>2022-04-10T14:04:12Z</time>
      </trkpt>
      <trkpt lat="43.70151" lon="6.1697">
        <ele>788</ele>
        <time>2022-04-10T14:04:23Z</time>
      </trkpt>
      <trkpt lat="43.70142" lon="6.16975">
        <ele>787.9</ele>
        <time>2022-04-10T14:04:32Z</time>
      </trkpt>
      <trkpt lat="43.70133" lon="6.1698">
        <ele>787.4</ele>
        <time>2022-04-10T14:04:42Z</time>
      </trkpt>
      <trkpt lat="43.70125" lon="6.16987">
        <ele>786.7</ele>
        <time>2022-04-10T14:04:51Z</time>
      </trkpt>
      <trkpt lat="43.70116" lon="6.16993">
        <ele>786.2</ele>
        <time>2022-04-10T14:05:00Z</time>
      </trkpt>
      <trkpt lat="43.70107" lon="6.16999">
        <ele>785.9</ele>
        <time>2022-04-10T14:05:08Z</time>
      </trkpt>
      <trkpt lat="43.70099" lon="6.17005">
        <ele>785.5</ele>
        <time>2022-04-10T14:05:16Z</time>
      </trkpt>
      <trkpt lat="43.70091" lon="6.1701">
        <ele>785.2</ele>
        <time>2022-04-10T14:05:24Z</time>
      </trkpt>
      <trkpt lat="43.70083" lon="6.17016">
        <ele>785</ele>
        <time>2022-04-10T14:05:33Z</time>
      </trkpt>
      <trkpt lat="43.70074" lon="6.17022">
        <ele>784.3</ele>
        <time>2022-04-10T14:05:42Z</time>
      </trkpt>
      <trkpt lat="43.70066" lon="6.1703">
        <ele>783.7</ele>
        <time>2022-04-10T14:05:51Z</time>
      </trkpt>
      <trkpt lat="43.70057" lon="6.17036">
        <ele>783.1</ele>
        <time>2022-04-10T14:06:00Z</time>
      </trkpt>
      <trkpt lat="43.70049" lon="6.17041">
        <ele>782.7</ele>
        <time>2022-04-10T14:06:09Z</time>
      </trkpt>
      <trkpt lat="43.70039" lon="6.17047">
        <ele>782.4</ele>
        <time>2022-04-10T14:06:18Z</time>
      </trkpt>
      <trkpt lat="43.7003" lon="6.17054">
        <ele>782.1</ele>
        <time>2022-04-10T14:06:27Z</time>
      </trkpt>
      <trkpt lat="43.70021" lon="6.17061">
        <ele>781.6</ele>
        <time>2022-04-10T14:06:36Z</time>
      </trkpt>
      <trkpt lat="43.70013" lon="6.17067">
        <ele>781.1</ele>
        <time>2022-04-10T14:06:45Z</time>
      </trkpt>
      <trkpt lat="43.70005" lon="6.17066">
        <ele>780.7</ele>
        <time>2022-04-10T14:06:57Z</time>
      </trkpt>
      <trkpt lat="43.70001" lon="6.17061">
        <ele>780.3</ele>
        <time>2022-04-10T14:07:45Z</time>
      </trkpt>
      <trkpt lat="43.69999" lon="6.17076">
        <ele>780.7</ele>
        <time>2022-04-10T14:08:07Z</time>
      </trkpt>
      <trkpt lat="43.69993" lon="6.17083">
        <ele>780.4</ele>
        <time>2022-04-10T14:08:43Z</time>
      </trkpt>
      <trkpt lat="43.69984" lon="6.1709">
        <ele>779.9</ele>
        <time>2022-04-10T14:08:53Z</time>
      </trkpt>
      <trkpt lat="43.69976" lon="6.17099">
        <ele>779.7</ele>
        <time>2022-04-10T14:09:02Z</time>
      </trkpt>
      <trkpt lat="43.69966" lon="6.1711">
        <ele>779.7</ele>
        <time>2022-04-10T14:09:12Z</time>
      </trkpt>
      <trkpt lat="43.69956" lon="6.1712">
        <ele>779.3</ele>
        <time>2022-04-10T14:09:23Z</time>
      </trkpt>
      <trkpt lat="43.69948" lon="6.17129">
        <ele>779</ele>
        <time>2022-04-10T14:09:32Z</time>
      </trkpt>
      <trkpt lat="43.69939" lon="6.17139">
        <ele>779.2</ele>
        <time>2022-04-10T14:09:42Z</time>
      </trkpt>
      <trkpt lat="43.69931" lon="6.17146">
        <ele>779.2</ele>
        <time>2022-04-10T14:09:51Z</time>
      </trkpt>
      <trkpt lat="43.69928" lon="6.17144">
        <ele>779.5</ele>
        <time>2022-04-10T14:10:36Z</time>
      </trkpt>
      <trkpt lat="43.69922" lon="6.17154">
        <ele>779.6</ele>
        <time>2022-04-10T14:10:55Z</time>
      </trkpt>
      <trkpt lat="43.69913" lon="6.17162">
        <ele>780.1</ele>
        <time>2022-04-10T14:11:05Z</time>
      </trkpt>
      <trkpt lat="43.69903" lon="6.17171">
        <ele>780.1</ele>
        <time>2022-04-10T14:11:15Z</time>
      </trkpt>
      <trkpt lat="43.69895" lon="6.17177">
        <ele>780.2</ele>
        <time>2022-04-10T14:11:24Z</time>
      </trkpt>
      <trkpt lat="43.69886" lon="6.17183">
        <ele>780.6</ele>
        <time>2022-04-10T14:11:33Z</time>
      </trkpt>
      <trkpt lat="43.69877" lon="6.17191">
        <ele>780.9</ele>
        <time>2022-04-10T14:11:42Z</time>
      </trkpt>
      <trkpt lat="43.69868" lon="6.17198">
        <ele>781.2</ele>
        <time>2022-04-10T14:11:51Z</time>
      </trkpt>
      <trkpt lat="43.69859" lon="6.17207">
        <ele>781.2</ele>
        <time>2022-04-10T14:12:01Z</time>
      </trkpt>
      <trkpt lat="43.69852" lon="6.17218">
        <ele>780.9</ele>
        <time>2022-04-10T14:12:10Z</time>
      </trkpt>
      <trkpt lat="43.69843" lon="6.1723">
        <ele>780.5</ele>
        <time>2022-04-10T14:12:19Z</time>
      </trkpt>
      <trkpt lat="43.69836" lon="6.17242">
        <ele>780.3</ele>
        <time>2022-04-10T14:12:28Z</time>
      </trkpt>
      <trkpt lat="43.69829" lon="6.17253">
        <ele>779.9</ele>
        <time>2022-04-10T14:12:37Z</time>
      </trkpt>
      <trkpt lat="43.69821" lon="6.17264">
        <ele>779.1</ele>
        <time>2022-04-10T14:12:46Z</time>
      </trkpt>
      <trkpt lat="43.69815" lon="6.17275">
        <ele>778.6</ele>
        <time>2022-04-10T14:12:55Z</time>
      </trkpt>
      <trkpt lat="43.69808" lon="6.17286">
        <ele>778</ele>
        <time>2022-04-10T14:13:04Z</time>
      </trkpt>
      <trkpt lat="43.69801" lon="6.17295">
        <ele>777</ele>
        <time>2022-04-10T14:13:12Z</time>
      </trkpt>
      <trkpt lat="43.69794" lon="6.17304">
        <ele>776.1</ele>
        <time>2022-04-10T14:13:21Z</time>
      </trkpt>
      <trkpt lat="43.69786" lon="6.17314">
        <ele>775.4</ele>
        <time>2022-04-10T14:13:29Z</time>
      </trkpt>
      <trkpt lat="43.69778" lon="6.17322">
        <ele>774.8</ele>
        <time>2022-04-10T14:13:38Z</time>
      </trkpt>
      <trkpt lat="43.69771" lon="6.1733">
        <ele>773.6</ele>
        <time>2022-04-10T14:13:48Z</time>
      </trkpt>
      <trkpt lat="43.69761" lon="6.17332">
        <ele>772.8</ele>
        <time>2022-04-10T14:14:00Z</time>
      </trkpt>
      <trkpt lat="43.69754" lon="6.17324">
        <ele>772.4</ele>
        <time>2022-04-10T14:14:10Z</time>
      </trkpt>
      <trkpt lat="43.69751" lon="6.1732">
        <ele>772.1</ele>
        <time>2022-04-10T14:15:04Z</time>
      </trkpt>
      <trkpt lat="43.69758" lon="6.17328">
        <ele>772.7</ele>
        <time>2022-04-10T14:15:39Z</time>
      </trkpt>
      <trkpt lat="43.69769" lon="6.17327">
        <ele>773.7</ele>
        <time>2022-04-10T14:15:50Z</time>
      </trkpt>
      <trkpt lat="43.69775" lon="6.1732">
        <ele>774.7</ele>
        <time>2022-04-10T14:16:00Z</time>
      </trkpt>
      <trkpt lat="43.6978" lon="6.17307">
        <ele>775.9</ele>
        <time>2022-04-10T14:16:15Z</time>
      </trkpt>
      <trkpt lat="43.69774" lon="6.1731">
        <ele>775.2</ele>
        <time>2022-04-10T14:16:38Z</time>
      </trkpt>
      <trkpt lat="43.69775" lon="6.17322">
        <ele>774.6</ele>
        <time>2022-04-10T14:17:07Z</time>
      </trkpt>
      <trkpt lat="43.6977" lon="6.17329">
        <ele>773.6</ele>
        <time>2022-04-10T14:17:15Z</time>
      </trkpt>
      <trkpt lat="43.69762" lon="6.17341">
        <ele>772.8</ele>
        <time>2022-04-10T14:17:25Z</time>
      </trkpt>
      <trkpt lat="43.69759" lon="6.17355">
        <ele>772.4</ele>
        <time>2022-04-10T14:17:34Z</time>
      </trkpt>
      <trkpt lat="43.69758" lon="6.1737">
        <ele>772.2</ele>
        <time>2022-04-10T14:17:44Z</time>
      </trkpt>
      <trkpt lat="43.69756" lon="6.17384">
        <ele>772</ele>
        <time>2022-04-10T14:17:59Z</time>
      </trkpt>
      <trkpt lat="43.69753" lon="6.17399">
        <ele>772</ele>
        <time>2022-04-10T14:18:08Z</time>
      </trkpt>
      <trkpt lat="43.69752" lon="6.17414">
        <ele>771.9</ele>
        <time>2022-04-10T14:18:19Z</time>
      </trkpt>
      <trkpt lat="43.69752" lon="6.17431">
        <ele>772.4</ele>
        <time>2022-04-10T14:18:30Z</time>
      </trkpt>
      <trkpt lat="43.6975" lon="6.17443">
        <ele>773</ele>
        <time>2022-04-10T14:18:39Z</time>
      </trkpt>
      <trkpt lat="43.69748" lon="6.17455">
        <ele>773.4</ele>
        <time>2022-04-10T14:18:48Z</time>
      </trkpt>
      <trkpt lat="43.69746" lon="6.1747">
        <ele>774.1</ele>
        <time>2022-04-10T14:18:59Z</time>
      </trkpt>
      <trkpt lat="43.69747" lon="6.17486">
        <ele>774.7</ele>
        <time>2022-04-10T14:19:13Z</time>
      </trkpt>
      <trkpt lat="43.69756" lon="6.17494">
        <ele>773.9</ele>
        <time>2022-04-10T14:19:23Z</time>
      </trkpt>
      <trkpt lat="43.69766" lon="6.17491">
        <ele>772.2</ele>
        <time>2022-04-10T14:19:33Z</time>
      </trkpt>
      <trkpt lat="43.69775" lon="6.17484">
        <ele>770.9</ele>
        <time>2022-04-10T14:19:44Z</time>
      </trkpt>
      <trkpt lat="43.69784" lon="6.17473">
        <ele>769.5</ele>
        <time>2022-04-10T14:19:55Z</time>
      </trkpt>
      <trkpt lat="43.69791" lon="6.17464">
        <ele>768.2</ele>
        <time>2022-04-10T14:20:05Z</time>
      </trkpt>
      <trkpt lat="43.698" lon="6.17457">
        <ele>766.9</ele>
        <time>2022-04-10T14:20:16Z</time>
      </trkpt>
      <trkpt lat="43.69808" lon="6.17447">
        <ele>766.3</ele>
        <time>2022-04-10T14:20:25Z</time>
      </trkpt>
      <trkpt lat="43.69815" lon="6.17438">
        <ele>765</ele>
        <time>2022-04-10T14:20:34Z</time>
      </trkpt>
      <trkpt lat="43.69823" lon="6.17429">
        <ele>763.3</ele>
        <time>2022-04-10T14:20:45Z</time>
      </trkpt>
      <trkpt lat="43.6983" lon="6.1742">
        <ele>761.8</ele>
        <time>2022-04-10T14:20:56Z</time>
      </trkpt>
      <trkpt lat="43.69837" lon="6.17412">
        <ele>761.1</ele>
        <time>2022-04-10T14:21:05Z</time>
      </trkpt>
      <trkpt lat="43.69845" lon="6.17405">
        <ele>760.7</ele>
        <time>2022-04-10T14:21:13Z</time>
      </trkpt>
      <trkpt lat="43.69851" lon="6.17401">
        <ele>760.2</ele>
        <time>2022-04-10T14:21:27Z</time>
      </trkpt>
      <trkpt lat="43.69856" lon="6.1739">
        <ele>758.8</ele>
        <time>2022-04-10T14:21:39Z</time>
      </trkpt>
      <trkpt lat="43.69864" lon="6.17377">
        <ele>758.1</ele>
        <time>2022-04-10T14:21:50Z</time>
      </trkpt>
      <trkpt lat="43.69871" lon="6.17368">
        <ele>758</ele>
        <time>2022-04-10T14:22:01Z</time>
      </trkpt>
      <trkpt lat="43.6988" lon="6.17359">
        <ele>757.4</ele>
        <time>2022-04-10T14:22:13Z</time>
      </trkpt>
      <trkpt lat="43.6989" lon="6.17351">
        <ele>756.7</ele>
        <time>2022-04-10T14:22:25Z</time>
      </trkpt>
      <trkpt lat="43.699" lon="6.17341">
        <ele>756</ele>
        <time>2022-04-10T14:22:38Z</time>
      </trkpt>
      <trkpt lat="43.69909" lon="6.1733">
        <ele>754.8</ele>
        <time>2022-04-10T14:22:50Z</time>
      </trkpt>
      <trkpt lat="43.69915" lon="6.17322">
        <ele>754.3</ele>
        <time>2022-04-10T14:22:59Z</time>
      </trkpt>
      <trkpt lat="43.69922" lon="6.17312">
        <ele>754.5</ele>
        <time>2022-04-10T14:23:08Z</time>
      </trkpt>
      <trkpt lat="43.69929" lon="6.17303">
        <ele>754.9</ele>
        <time>2022-04-10T14:23:16Z</time>
      </trkpt>
      <trkpt lat="43.69939" lon="6.17288">
        <ele>753.6</ele>
        <time>2022-04-10T14:23:28Z</time>
      </trkpt>
      <trkpt lat="43.69948" lon="6.17278">
        <ele>751.3</ele>
        <time>2022-04-10T14:23:38Z</time>
      </trkpt>
      <trkpt lat="43.6996" lon="6.17268">
        <ele>752.6</ele>
        <time>2022-04-10T14:23:49Z</time>
      </trkpt>
      <trkpt lat="43.69969" lon="6.1726">
        <ele>752.1</ele>
        <time>2022-04-10T14:24:00Z</time>
      </trkpt>
      <trkpt lat="43.69984" lon="6.17256">
        <ele>750.6</ele>
        <time>2022-04-10T14:24:16Z</time>
      </trkpt>
      <trkpt lat="43.70001" lon="6.17258">
        <ele>749.6</ele>
        <time>2022-04-10T14:24:30Z</time>
      </trkpt>
      <trkpt lat="43.70015" lon="6.1727">
        <ele>749.9</ele>
        <time>2022-04-10T14:24:41Z</time>
      </trkpt>
      <trkpt lat="43.70021" lon="6.17282">
        <ele>748.1</ele>
        <time>2022-04-10T14:24:51Z</time>
      </trkpt>
      <trkpt lat="43.70024" lon="6.17296">
        <ele>747.9</ele>
        <time>2022-04-10T14:25:01Z</time>
      </trkpt>
      <trkpt lat="43.70033" lon="6.1731">
        <ele>747.5</ele>
        <time>2022-04-10T14:25:11Z</time>
      </trkpt>
      <trkpt lat="43.70045" lon="6.17319">
        <ele>747.6</ele>
        <time>2022-04-10T14:25:23Z</time>
      </trkpt>
      <trkpt lat="43.70057" lon="6.17316">
        <ele>745.9</ele>
        <time>2022-04-10T14:25:34Z</time>
      </trkpt>
      <trkpt lat="43.70068" lon="6.17306">
        <ele>745.5</ele>
        <time>2022-04-10T14:25:42Z</time>
      </trkpt>
      <trkpt lat="43.70076" lon="6.17296">
        <ele>745.6</ele>
        <time>2022-04-10T14:25:51Z</time>
      </trkpt>
      <trkpt lat="43.70085" lon="6.17287">
        <ele>744.2</ele>
        <time>2022-04-10T14:26:00Z</time>
      </trkpt>
      <trkpt lat="43.70093" lon="6.17278">
        <ele>743.3</ele>
        <time>2022-04-10T14:26:09Z</time>
      </trkpt>
      <trkpt lat="43.70101" lon="6.17269">
        <ele>743.9</ele>
        <time>2022-04-10T14:26:18Z</time>
      </trkpt>
      <trkpt lat="43.7011" lon="6.17264">
        <ele>742.6</ele>
        <time>2022-04-10T14:26:27Z</time>
      </trkpt>
      <trkpt lat="43.7012" lon="6.17256">
        <ele>742.3</ele>
        <time>2022-04-10T14:26:37Z</time>
      </trkpt>
      <trkpt lat="43.70129" lon="6.17249">
        <ele>741.6</ele>
        <time>2022-04-10T14:26:45Z</time>
      </trkpt>
      <trkpt lat="43.70135" lon="6.17239">
        <ele>741.1</ele>
        <time>2022-04-10T14:26:53Z</time>
      </trkpt>
      <trkpt lat="43.70142" lon="6.17231">
        <ele>740.2</ele>
        <time>2022-04-10T14:27:02Z</time>
      </trkpt>
      <trkpt lat="43.70149" lon="6.17219">
        <ele>739.5</ele>
        <time>2022-04-10T14:27:13Z</time>
      </trkpt>
      <trkpt lat="43.70166" lon="6.17219">
        <ele>739.1</ele>
        <time>2022-04-10T14:27:30Z</time>
      </trkpt>
      <trkpt lat="43.70177" lon="6.17215">
        <ele>739.8</ele>
        <time>2022-04-10T14:27:42Z</time>
      </trkpt>
      <trkpt lat="43.70195" lon="6.17209">
        <ele>739.6</ele>
        <time>2022-04-10T14:27:56Z</time>
      </trkpt>
      <trkpt lat="43.70205" lon="6.17201">
        <ele>739</ele>
        <time>2022-04-10T14:28:07Z</time>
      </trkpt>
      <trkpt lat="43.70215" lon="6.17195">
        <ele>737.8</ele>
        <time>2022-04-10T14:28:19Z</time>
      </trkpt>
      <trkpt lat="43.70228" lon="6.17182">
        <ele>737.8</ele>
        <time>2022-04-10T14:28:31Z</time>
      </trkpt>
      <trkpt lat="43.70241" lon="6.17172">
        <ele>738.3</ele>
        <time>2022-04-10T14:28:44Z</time>
      </trkpt>
      <trkpt lat="43.70251" lon="6.17159">
        <ele>736.6</ele>
        <time>2022-04-10T14:28:56Z</time>
      </trkpt>
      <trkpt lat="43.70261" lon="6.17151">
        <ele>734.8</ele>
        <time>2022-04-10T14:29:06Z</time>
      </trkpt>
      <trkpt lat="43.70268" lon="6.17151">
        <ele>734.5</ele>
        <time>2022-04-10T14:29:28Z</time>
      </trkpt>
      <trkpt lat="43.70275" lon="6.1715">
        <ele>733.8</ele>
        <time>2022-04-10T14:29:54Z</time>
      </trkpt>
      <trkpt lat="43.70276" lon="6.17143">
        <ele>732</ele>
        <time>2022-04-10T14:30:13Z</time>
      </trkpt>
      <trkpt lat="43.70285" lon="6.17139">
        <ele>732</ele>
        <time>2022-04-10T14:30:29Z</time>
      </trkpt>
      <trkpt lat="43.70295" lon="6.17129">
        <ele>732.8</ele>
        <time>2022-04-10T14:30:42Z</time>
      </trkpt>
      <trkpt lat="43.70303" lon="6.1712">
        <ele>731.3</ele>
        <time>2022-04-10T14:30:51Z</time>
      </trkpt>
      <trkpt lat="43.70311" lon="6.1711">
        <ele>731.2</ele>
        <time>2022-04-10T14:31:00Z</time>
      </trkpt>
      <trkpt lat="43.70317" lon="6.17099">
        <ele>733.1</ele>
        <time>2022-04-10T14:31:09Z</time>
      </trkpt>
      <trkpt lat="43.70321" lon="6.17081">
        <ele>732.6</ele>
        <time>2022-04-10T14:31:20Z</time>
      </trkpt>
      <trkpt lat="43.70326" lon="6.17067">
        <ele>731.6</ele>
        <time>2022-04-10T14:31:29Z</time>
      </trkpt>
      <trkpt lat="43.70331" lon="6.17055">
        <ele>729.2</ele>
        <time>2022-04-10T14:31:39Z</time>
      </trkpt>
      <trkpt lat="43.70344" lon="6.17037">
        <ele>729.7</ele>
        <time>2022-04-10T14:31:53Z</time>
      </trkpt>
      <trkpt lat="43.7035" lon="6.17024">
        <ele>728.9</ele>
        <time>2022-04-10T14:32:02Z</time>
      </trkpt>
      <trkpt lat="43.70357" lon="6.17009">
        <ele>727.3</ele>
        <time>2022-04-10T14:32:13Z</time>
      </trkpt>
      <trkpt lat="43.70368" lon="6.16996">
        <ele>725.9</ele>
        <time>2022-04-10T14:32:24Z</time>
      </trkpt>
      <trkpt lat="43.70372" lon="6.16986">
        <ele>725.4</ele>
        <time>2022-04-10T14:32:33Z</time>
      </trkpt>
      <trkpt lat="43.70379" lon="6.16977">
        <ele>723.9</ele>
        <time>2022-04-10T14:32:43Z</time>
      </trkpt>
      <trkpt lat="43.70387" lon="6.16967">
        <ele>722.3</ele>
        <time>2022-04-10T14:32:52Z</time>
      </trkpt>
      <trkpt lat="43.70397" lon="6.16958">
        <ele>722.9</ele>
        <time>2022-04-10T14:33:03Z</time>
      </trkpt>
      <trkpt lat="43.70406" lon="6.1695">
        <ele>722.3</ele>
        <time>2022-04-10T14:33:14Z</time>
      </trkpt>
      <trkpt lat="43.70419" lon="6.16937">
        <ele>720.1</ele>
        <time>2022-04-10T14:33:27Z</time>
      </trkpt>
      <trkpt lat="43.70426" lon="6.16927">
        <ele>718.9</ele>
        <time>2022-04-10T14:33:38Z</time>
      </trkpt>
      <trkpt lat="43.7044" lon="6.16926">
        <ele>718.4</ele>
        <time>2022-04-10T14:33:50Z</time>
      </trkpt>
      <trkpt lat="43.70452" lon="6.16928">
        <ele>718.2</ele>
        <time>2022-04-10T14:34:01Z</time>
      </trkpt>
      <trkpt lat="43.70466" lon="6.16923">
        <ele>717</ele>
        <time>2022-04-10T14:34:15Z</time>
      </trkpt>
      <trkpt lat="43.7048" lon="6.16919">
        <ele>715.4</ele>
        <time>2022-04-10T14:34:26Z</time>
      </trkpt>
      <trkpt lat="43.70489" lon="6.16914">
        <ele>714.7</ele>
        <time>2022-04-10T14:34:37Z</time>
      </trkpt>
      <trkpt lat="43.70504" lon="6.16911">
        <ele>714.1</ele>
        <time>2022-04-10T14:34:52Z</time>
      </trkpt>
      <trkpt lat="43.70519" lon="6.1691">
        <ele>713.1</ele>
        <time>2022-04-10T14:35:03Z</time>
      </trkpt>
      <trkpt lat="43.70529" lon="6.16909">
        <ele>712.4</ele>
        <time>2022-04-10T14:35:15Z</time>
      </trkpt>
      <trkpt lat="43.70543" lon="6.16912">
        <ele>710.3</ele>
        <time>2022-04-10T14:35:31Z</time>
      </trkpt>
      <trkpt lat="43.70558" lon="6.16919">
        <ele>709.6</ele>
        <time>2022-04-10T14:35:45Z</time>
      </trkpt>
      <trkpt lat="43.70575" lon="6.16915">
        <ele>713.3</ele>
        <time>2022-04-10T14:35:58Z</time>
      </trkpt>
      <trkpt lat="43.70581" lon="6.16902">
        <ele>711.6</ele>
        <time>2022-04-10T14:36:08Z</time>
      </trkpt>
      <trkpt lat="43.70584" lon="6.1689">
        <ele>708.3</ele>
        <time>2022-04-10T14:36:17Z</time>
      </trkpt>
      <trkpt lat="43.70584" lon="6.16874">
        <ele>706.6</ele>
        <time>2022-04-10T14:36:27Z</time>
      </trkpt>
      <trkpt lat="43.70581" lon="6.16856">
        <ele>705.2</ele>
        <time>2022-04-10T14:36:37Z</time>
      </trkpt>
      <trkpt lat="43.70582" lon="6.16845">
        <ele>704.3</ele>
        <time>2022-04-10T14:36:47Z</time>
      </trkpt>
      <trkpt lat="43.70584" lon="6.16831">
        <ele>703.4</ele>
        <time>2022-04-10T14:36:56Z</time>
      </trkpt>
      <trkpt lat="43.70593" lon="6.16825">
        <ele>704.1</ele>
        <time>2022-04-10T14:37:09Z</time>
      </trkpt>
      <trkpt lat="43.70607" lon="6.16825">
        <ele>703.3</ele>
        <time>2022-04-10T14:37:21Z</time>
      </trkpt>
      <trkpt lat="43.70621" lon="6.16828">
        <ele>702.2</ele>
        <time>2022-04-10T14:37:34Z</time>
      </trkpt>
      <trkpt lat="43.70633" lon="6.16827">
        <ele>701.4</ele>
        <time>2022-04-10T14:37:47Z</time>
      </trkpt>
      <trkpt lat="43.70649" lon="6.16821">
        <ele>702.1</ele>
        <time>2022-04-10T14:38:02Z</time>
      </trkpt>
      <trkpt lat="43.70661" lon="6.16815">
        <ele>701.9</ele>
        <time>2022-04-10T14:38:11Z</time>
      </trkpt>
      <trkpt lat="43.70667" lon="6.16806">
        <ele>699.1</ele>
        <time>2022-04-10T14:38:20Z</time>
      </trkpt>
      <trkpt lat="43.70674" lon="6.16798">
        <ele>698.7</ele>
        <time>2022-04-10T14:38:31Z</time>
      </trkpt>
      <trkpt lat="43.70684" lon="6.168">
        <ele>697.3</ele>
        <time>2022-04-10T14:38:45Z</time>
      </trkpt>
      <trkpt lat="43.70696" lon="6.16805">
        <ele>695.2</ele>
        <time>2022-04-10T14:38:55Z</time>
      </trkpt>
      <trkpt lat="43.70708" lon="6.16807">
        <ele>695.9</ele>
        <time>2022-04-10T14:39:07Z</time>
      </trkpt>
      <trkpt lat="43.70719" lon="6.16801">
        <ele>695.8</ele>
        <time>2022-04-10T14:39:19Z</time>
      </trkpt>
      <trkpt lat="43.70732" lon="6.16792">
        <ele>694.6</ele>
        <time>2022-04-10T14:39:33Z</time>
      </trkpt>
      <trkpt lat="43.70741" lon="6.16797">
        <ele>693.1</ele>
        <time>2022-04-10T14:39:48Z</time>
      </trkpt>
      <trkpt lat="43.70744" lon="6.16803">
        <ele>691.7</ele>
        <time>2022-04-10T14:40:36Z</time>
      </trkpt>
      <trkpt lat="43.70742" lon="6.16799">
        <ele>692.7</ele>
        <time>2022-04-10T14:41:34Z</time>
      </trkpt>
      <trkpt lat="43.70745" lon="6.16794">
        <ele>693.1</ele>
        <time>2022-04-10T14:42:04Z</time>
      </trkpt>
      <trkpt lat="43.7075" lon="6.168">
        <ele>691.1</ele>
        <time>2022-04-10T14:42:55Z</time>
      </trkpt>
      <trkpt lat="43.70766" lon="6.16804">
        <ele>688.9</ele>
        <time>2022-04-10T14:43:07Z</time>
      </trkpt>
      <trkpt lat="43.70776" lon="6.16805">
        <ele>687.2</ele>
        <time>2022-04-10T14:43:20Z</time>
      </trkpt>
      <trkpt lat="43.70782" lon="6.16818">
        <ele>686</ele>
        <time>2022-04-10T14:43:31Z</time>
      </trkpt>
      <trkpt lat="43.70785" lon="6.1684">
        <ele>685.5</ele>
        <time>2022-04-10T14:43:44Z</time>
      </trkpt>
      <trkpt lat="43.70806" lon="6.1684">
        <ele>684.1</ele>
        <time>2022-04-10T14:43:58Z</time>
      </trkpt>
      <trkpt lat="43.7082" lon="6.16833">
        <ele>683.6</ele>
        <time>2022-04-10T14:44:09Z</time>
      </trkpt>
      <trkpt lat="43.70824" lon="6.16823">
        <ele>683.3</ele>
        <time>2022-04-10T14:44:18Z</time>
      </trkpt>
      <trkpt lat="43.70823" lon="6.16809">
        <ele>682.6</ele>
        <time>2022-04-10T14:44:29Z</time>
      </trkpt>
      <trkpt lat="43.70839" lon="6.168">
        <ele>680.6</ele>
        <time>2022-04-10T14:44:42Z</time>
      </trkpt>
      <trkpt lat="43.70852" lon="6.16801">
        <ele>679.3</ele>
        <time>2022-04-10T14:44:54Z</time>
      </trkpt>
      <trkpt lat="43.70862" lon="6.16818">
        <ele>676.8</ele>
        <time>2022-04-10T14:45:07Z</time>
      </trkpt>
      <trkpt lat="43.70867" lon="6.16832">
        <ele>676.9</ele>
        <time>2022-04-10T14:45:16Z</time>
      </trkpt>
      <trkpt lat="43.70872" lon="6.16846">
        <ele>676.2</ele>
        <time>2022-04-10T14:45:25Z</time>
      </trkpt>
      <trkpt lat="43.70875" lon="6.16857">
        <ele>675</ele>
        <time>2022-04-10T14:45:35Z</time>
      </trkpt>
      <trkpt lat="43.70884" lon="6.16868">
        <ele>674.3</ele>
        <time>2022-04-10T14:45:45Z</time>
      </trkpt>
      <trkpt lat="43.70892" lon="6.16868">
        <ele>673.5</ele>
        <time>2022-04-10T14:45:56Z</time>
      </trkpt>
      <trkpt lat="43.70902" lon="6.16861">
        <ele>672</ele>
        <time>2022-04-10T14:46:06Z</time>
      </trkpt>
      <trkpt lat="43.70911" lon="6.16854">
        <ele>672.6</ele>
        <time>2022-04-10T14:46:17Z</time>
      </trkpt>
      <trkpt lat="43.7092" lon="6.16847">
        <ele>672.1</ele>
        <time>2022-04-10T14:46:29Z</time>
      </trkpt>
      <trkpt lat="43.70935" lon="6.16844">
        <ele>670.4</ele>
        <time>2022-04-10T14:46:42Z</time>
      </trkpt>
      <trkpt lat="43.70949" lon="6.1684">
        <ele>668.3</ele>
        <time>2022-04-10T14:46:53Z</time>
      </trkpt>
      <trkpt lat="43.70962" lon="6.16836">
        <ele>666.7</ele>
        <time>2022-04-10T14:47:07Z</time>
      </trkpt>
      <trkpt lat="43.70975" lon="6.16843">
        <ele>666.2</ele>
        <time>2022-04-10T14:47:20Z</time>
      </trkpt>
      <trkpt lat="43.70981" lon="6.16861">
        <ele>667</ele>
        <time>2022-04-10T14:47:30Z</time>
      </trkpt>
      <trkpt lat="43.70981" lon="6.16875">
        <ele>664.9</ele>
        <time>2022-04-10T14:47:40Z</time>
      </trkpt>
      <trkpt lat="43.70982" lon="6.16888">
        <ele>663.1</ele>
        <time>2022-04-10T14:47:49Z</time>
      </trkpt>
      <trkpt lat="43.70988" lon="6.16902">
        <ele>663.7</ele>
        <time>2022-04-10T14:48:00Z</time>
      </trkpt>
      <trkpt lat="43.70999" lon="6.16901">
        <ele>662.2</ele>
        <time>2022-04-10T14:48:14Z</time>
      </trkpt>
      <trkpt lat="43.71011" lon="6.16912">
        <ele>661.9</ele>
        <time>2022-04-10T14:48:29Z</time>
      </trkpt>
      <trkpt lat="43.71021" lon="6.16927">
        <ele>660.1</ele>
        <time>2022-04-10T14:48:39Z</time>
      </trkpt>
      <trkpt lat="43.7102" lon="6.16929">
        <ele>659.9</ele>
        <time>2022-04-10T14:49:09Z</time>
      </trkpt>
      <trkpt lat="43.71022" lon="6.16937">
        <ele>659</ele>
        <time>2022-04-10T14:49:32Z</time>
      </trkpt>
      <trkpt lat="43.71023" lon="6.16952">
        <ele>657.4</ele>
        <time>2022-04-10T14:49:43Z</time>
      </trkpt>
      <trkpt lat="43.71017" lon="6.16965">
        <ele>657.6</ele>
        <time>2022-04-10T14:49:56Z</time>
      </trkpt>
      <trkpt lat="43.71007" lon="6.16973">
        <ele>658.9</ele>
        <time>2022-04-10T14:50:07Z</time>
      </trkpt>
      <trkpt lat="43.71002" lon="6.16995">
        <ele>661.3</ele>
        <time>2022-04-10T14:50:22Z</time>
      </trkpt>
      <trkpt lat="43.71007" lon="6.17008">
        <ele>661.2</ele>
        <time>2022-04-10T14:50:35Z</time>
      </trkpt>
      <trkpt lat="43.71013" lon="6.17021">
        <ele>661.1</ele>
        <time>2022-04-10T14:50:45Z</time>
      </trkpt>
      <trkpt lat="43.71018" lon="6.17033">
        <ele>661.1</ele>
        <time>2022-04-10T14:50:54Z</time>
      </trkpt>
      <trkpt lat="43.71018" lon="6.17046">
        <ele>662.9</ele>
        <time>2022-04-10T14:51:04Z</time>
      </trkpt>
      <trkpt lat="43.7102" lon="6.1706">
        <ele>664.4</ele>
        <time>2022-04-10T14:51:14Z</time>
      </trkpt>
      <trkpt lat="43.71024" lon="6.17074">
        <ele>666.7</ele>
        <time>2022-04-10T14:51:24Z</time>
      </trkpt>
      <trkpt lat="43.71029" lon="6.17083">
        <ele>667.7</ele>
        <time>2022-04-10T14:51:35Z</time>
      </trkpt>
      <trkpt lat="43.71037" lon="6.17095">
        <ele>669.1</ele>
        <time>2022-04-10T14:51:47Z</time>
      </trkpt>
      <trkpt lat="43.71047" lon="6.17107">
        <ele>670.5</ele>
        <time>2022-04-10T14:51:58Z</time>
      </trkpt>
      <trkpt lat="43.71058" lon="6.17118">
        <ele>671.4</ele>
        <time>2022-04-10T14:52:12Z</time>
      </trkpt>
      <trkpt lat="43.71069" lon="6.17125">
        <ele>670.6</ele>
        <time>2022-04-10T14:52:25Z</time>
      </trkpt>
      <trkpt lat="43.71078" lon="6.17137">
        <ele>671</ele>
        <time>2022-04-10T14:52:37Z</time>
      </trkpt>
      <trkpt lat="43.71083" lon="6.17151">
        <ele>672.4</ele>
        <time>2022-04-10T14:52:47Z</time>
      </trkpt>
      <trkpt lat="43.71087" lon="6.17166">
        <ele>673.7</ele>
        <time>2022-04-10T14:52:57Z</time>
      </trkpt>
      <trkpt lat="43.71095" lon="6.17176">
        <ele>674.1</ele>
        <time>2022-04-10T14:53:06Z</time>
      </trkpt>
      <trkpt lat="43.71101" lon="6.17185">
        <ele>674.9</ele>
        <time>2022-04-10T14:53:16Z</time>
      </trkpt>
      <trkpt lat="43.71109" lon="6.17195">
        <ele>675.7</ele>
        <time>2022-04-10T14:53:26Z</time>
      </trkpt>
      <trkpt lat="43.71117" lon="6.17204">
        <ele>676.4</ele>
        <time>2022-04-10T14:53:37Z</time>
      </trkpt>
      <trkpt lat="43.7113" lon="6.17209">
        <ele>676</ele>
        <time>2022-04-10T14:53:48Z</time>
      </trkpt>
      <trkpt lat="43.71142" lon="6.17217">
        <ele>675.8</ele>
        <time>2022-04-10T14:53:59Z</time>
      </trkpt>
      <trkpt lat="43.71145" lon="6.1723">
        <ele>676.8</ele>
        <time>2022-04-10T14:54:11Z</time>
      </trkpt>
      <trkpt lat="43.71148" lon="6.17245">
        <ele>677.4</ele>
        <time>2022-04-10T14:54:21Z</time>
      </trkpt>
      <trkpt lat="43.71155" lon="6.17257">
        <ele>677.2</ele>
        <time>2022-04-10T14:54:31Z</time>
      </trkpt>
      <trkpt lat="43.7116" lon="6.17269">
        <ele>677.1</ele>
        <time>2022-04-10T14:54:42Z</time>
      </trkpt>
      <trkpt lat="43.71174" lon="6.1728">
        <ele>676</ele>
        <time>2022-04-10T14:54:55Z</time>
      </trkpt>
      <trkpt lat="43.71184" lon="6.17288">
        <ele>675.1</ele>
        <time>2022-04-10T14:55:06Z</time>
      </trkpt>
      <trkpt lat="43.71193" lon="6.17299">
        <ele>674.7</ele>
        <time>2022-04-10T14:55:18Z</time>
      </trkpt>
      <trkpt lat="43.71206" lon="6.17306">
        <ele>674.2</ele>
        <time>2022-04-10T14:55:29Z</time>
      </trkpt>
      <trkpt lat="43.7122" lon="6.17312">
        <ele>673.4</ele>
        <time>2022-04-10T14:55:40Z</time>
      </trkpt>
      <trkpt lat="43.71234" lon="6.17314">
        <ele>672.5</ele>
        <time>2022-04-10T14:55:51Z</time>
      </trkpt>
      <trkpt lat="43.71246" lon="6.17316">
        <ele>671.7</ele>
        <time>2022-04-10T14:56:00Z</time>
      </trkpt>
      <trkpt lat="43.71256" lon="6.17317">
        <ele>670.9</ele>
        <time>2022-04-10T14:56:09Z</time>
      </trkpt>
      <trkpt lat="43.71263" lon="6.17322">
        <ele>670.5</ele>
        <time>2022-04-10T14:56:18Z</time>
      </trkpt>
      <trkpt lat="43.71268" lon="6.17328">
        <ele>670.4</ele>
        <time>2022-04-10T14:56:30Z</time>
      </trkpt>
      <trkpt lat="43.71277" lon="6.17334">
        <ele>670.1</ele>
        <time>2022-04-10T14:56:39Z</time>
      </trkpt>
      <trkpt lat="43.71289" lon="6.17334">
        <ele>669.6</ele>
        <time>2022-04-10T14:56:49Z</time>
      </trkpt>
      <trkpt lat="43.71305" lon="6.17339">
        <ele>669</ele>
        <time>2022-04-10T14:56:57Z</time>
      </trkpt>
      <trkpt lat="43.71315" lon="6.17337">
        <ele>669</ele>
        <time>2022-04-10T14:57:09Z</time>
      </trkpt>
      <trkpt lat="43.71323" lon="6.17334">
        <ele>669</ele>
        <time>2022-04-10T14:57:20Z</time>
      </trkpt>
      <trkpt lat="43.71317" lon="6.1734">
        <ele>668.9</ele>
        <time>2022-04-10T14:57:34Z</time>
      </trkpt>
      <trkpt lat="43.71332" lon="6.17351">
        <ele>668.4</ele>
        <time>2022-04-10T14:58:12Z</time>
      </trkpt>
      <trkpt lat="43.71348" lon="6.17353">
        <ele>667.7</ele>
        <time>2022-04-10T14:58:23Z</time>
      </trkpt>
      <trkpt lat="43.71362" lon="6.17358">
        <ele>667</ele>
        <time>2022-04-10T14:58:34Z</time>
      </trkpt>
      <trkpt lat="43.71373" lon="6.17365">
        <ele>666</ele>
        <time>2022-04-10T14:58:45Z</time>
      </trkpt>
      <trkpt lat="43.71386" lon="6.1737">
        <ele>664.9</ele>
        <time>2022-04-10T14:58:58Z</time>
      </trkpt>
      <trkpt lat="43.71401" lon="6.17377">
        <ele>664</ele>
        <time>2022-04-10T14:59:09Z</time>
      </trkpt>
      <trkpt lat="43.71411" lon="6.17385">
        <ele>663.4</ele>
        <time>2022-04-10T14:59:18Z</time>
      </trkpt>
      <trkpt lat="43.71418" lon="6.17395">
        <ele>662.7</ele>
        <time>2022-04-10T14:59:28Z</time>
      </trkpt>
      <trkpt lat="43.71426" lon="6.17406">
        <ele>661.9</ele>
        <time>2022-04-10T14:59:40Z</time>
      </trkpt>
      <trkpt lat="43.71435" lon="6.17416">
        <ele>661.3</ele>
        <time>2022-04-10T14:59:51Z</time>
      </trkpt>
      <trkpt lat="43.71447" lon="6.17425">
        <ele>660.6</ele>
        <time>2022-04-10T15:00:04Z</time>
      </trkpt>
      <trkpt lat="43.71458" lon="6.17436">
        <ele>659.4</ele>
        <time>2022-04-10T15:00:15Z</time>
      </trkpt>
      <trkpt lat="43.71471" lon="6.17445">
        <ele>658.1</ele>
        <time>2022-04-10T15:00:26Z</time>
      </trkpt>
      <trkpt lat="43.71479" lon="6.17455">
        <ele>657.7</ele>
        <time>2022-04-10T15:00:36Z</time>
      </trkpt>
      <trkpt lat="43.71489" lon="6.17465">
        <ele>657.4</ele>
        <time>2022-04-10T15:00:48Z</time>
      </trkpt>
      <trkpt lat="43.71501" lon="6.17474">
        <ele>656.9</ele>
        <time>2022-04-10T15:00:59Z</time>
      </trkpt>
      <trkpt lat="43.71513" lon="6.17484">
        <ele>656.3</ele>
        <time>2022-04-10T15:01:08Z</time>
      </trkpt>
      <trkpt lat="43.71521" lon="6.17493">
        <ele>656.1</ele>
        <time>2022-04-10T15:01:17Z</time>
      </trkpt>
      <trkpt lat="43.7153" lon="6.17501">
        <ele>655.9</ele>
        <time>2022-04-10T15:01:26Z</time>
      </trkpt>
      <trkpt lat="43.7154" lon="6.17511">
        <ele>655.1</ele>
        <time>2022-04-10T15:01:35Z</time>
      </trkpt>
      <trkpt lat="43.71548" lon="6.17522">
        <ele>654.5</ele>
        <time>2022-04-10T15:01:45Z</time>
      </trkpt>
      <trkpt lat="43.71557" lon="6.17532">
        <ele>654.1</ele>
        <time>2022-04-10T15:01:55Z</time>
      </trkpt>
      <trkpt lat="43.71562" lon="6.17541">
        <ele>654.1</ele>
        <time>2022-04-10T15:02:04Z</time>
      </trkpt>
      <trkpt lat="43.71574" lon="6.17552">
        <ele>653.6</ele>
        <time>2022-04-10T15:02:15Z</time>
      </trkpt>
      <trkpt lat="43.71582" lon="6.17563">
        <ele>653.1</ele>
        <time>2022-04-10T15:02:26Z</time>
      </trkpt>
      <trkpt lat="43.71592" lon="6.17574">
        <ele>652.4</ele>
        <time>2022-04-10T15:02:37Z</time>
      </trkpt>
      <trkpt lat="43.716" lon="6.17586">
        <ele>651.8</ele>
        <time>2022-04-10T15:02:48Z</time>
      </trkpt>
      <trkpt lat="43.71611" lon="6.17595">
        <ele>651</ele>
        <time>2022-04-10T15:03:02Z</time>
      </trkpt>
      <trkpt lat="43.7162" lon="6.17609">
        <ele>650.3</ele>
        <time>2022-04-10T15:03:13Z</time>
      </trkpt>
      <trkpt lat="43.71628" lon="6.17618">
        <ele>649.5</ele>
        <time>2022-04-10T15:03:25Z</time>
      </trkpt>
      <trkpt lat="43.71636" lon="6.17631">
        <ele>648.5</ele>
        <time>2022-04-10T15:03:38Z</time>
      </trkpt>
      <trkpt lat="43.71647" lon="6.17643">
        <ele>647.7</ele>
        <time>2022-04-10T15:03:48Z</time>
      </trkpt>
      <trkpt lat="43.71657" lon="6.17655">
        <ele>647</ele>
        <time>2022-04-10T15:03:58Z</time>
      </trkpt>
      <trkpt lat="43.71666" lon="6.17666">
        <ele>646.1</ele>
        <time>2022-04-10T15:04:07Z</time>
      </trkpt>
      <trkpt lat="43.71671" lon="6.17676">
        <ele>645.7</ele>
        <time>2022-04-10T15:04:15Z</time>
      </trkpt>
      <trkpt lat="43.71675" lon="6.1769">
        <ele>645.4</ele>
        <time>2022-04-10T15:04:24Z</time>
      </trkpt>
      <trkpt lat="43.7168" lon="6.17703">
        <ele>645</ele>
        <time>2022-04-10T15:04:33Z</time>
      </trkpt>
      <trkpt lat="43.71682" lon="6.17717">
        <ele>644.9</ele>
        <time>2022-04-10T15:04:42Z</time>
      </trkpt>
      <trkpt lat="43.71688" lon="6.1773">
        <ele>644.4</ele>
        <time>2022-04-10T15:04:51Z</time>
      </trkpt>
      <trkpt lat="43.71694" lon="6.17745">
        <ele>644</ele>
        <time>2022-04-10T15:05:01Z</time>
      </trkpt>
      <trkpt lat="43.71697" lon="6.17757">
        <ele>643.3</ele>
        <time>2022-04-10T15:05:10Z</time>
      </trkpt>
      <trkpt lat="43.71699" lon="6.1777">
        <ele>642.4</ele>
        <time>2022-04-10T15:05:29Z</time>
      </trkpt>
      <trkpt lat="43.71701" lon="6.17783">
        <ele>641.5</ele>
        <time>2022-04-10T15:05:38Z</time>
      </trkpt>
      <trkpt lat="43.71704" lon="6.17795">
        <ele>640.8</ele>
        <time>2022-04-10T15:05:47Z</time>
      </trkpt>
      <trkpt lat="43.71708" lon="6.1781">
        <ele>639.7</ele>
        <time>2022-04-10T15:05:58Z</time>
      </trkpt>
      <trkpt lat="43.71708" lon="6.17827">
        <ele>638.2</ele>
        <time>2022-04-10T15:06:09Z</time>
      </trkpt>
      <trkpt lat="43.7171" lon="6.1784">
        <ele>636.6</ele>
        <time>2022-04-10T15:06:20Z</time>
      </trkpt>
      <trkpt lat="43.7171" lon="6.17839">
        <ele>636.7</ele>
        <time>2022-04-10T15:06:49Z</time>
      </trkpt>
      <trkpt lat="43.7171" lon="6.17845">
        <ele>636.1</ele>
        <time>2022-04-10T15:07:29Z</time>
      </trkpt>
      <trkpt lat="43.71707" lon="6.17852">
        <ele>635.6</ele>
        <time>2022-04-10T15:07:51Z</time>
      </trkpt>
      <trkpt lat="43.71701" lon="6.17868">
        <ele>634.3</ele>
        <time>2022-04-10T15:08:02Z</time>
      </trkpt>
      <trkpt lat="43.71694" lon="6.17878">
        <ele>633.6</ele>
        <time>2022-04-10T15:08:11Z</time>
      </trkpt>
      <trkpt lat="43.71688" lon="6.17891">
        <ele>632</ele>
        <time>2022-04-10T15:08:21Z</time>
      </trkpt>
      <trkpt lat="43.71684" lon="6.17902">
        <ele>630.3</ele>
        <time>2022-04-10T15:08:30Z</time>
      </trkpt>
      <trkpt lat="43.71677" lon="6.17912">
        <ele>629.3</ele>
        <time>2022-04-10T15:08:39Z</time>
      </trkpt>
      <trkpt lat="43.71669" lon="6.17919">
        <ele>629.3</ele>
        <time>2022-04-10T15:08:49Z</time>
      </trkpt>
      <trkpt lat="43.71661" lon="6.17929">
        <ele>627.9</ele>
        <time>2022-04-10T15:08:58Z</time>
      </trkpt>
      <trkpt lat="43.71659" lon="6.17937">
        <ele>626.6</ele>
        <time>2022-04-10T15:09:09Z</time>
      </trkpt>
      <trkpt lat="43.71669" lon="6.17936">
        <ele>626.2</ele>
        <time>2022-04-10T15:09:18Z</time>
      </trkpt>
      <trkpt lat="43.71679" lon="6.17935">
        <ele>625</ele>
        <time>2022-04-10T15:09:27Z</time>
      </trkpt>
      <trkpt lat="43.7169" lon="6.17931">
        <ele>624</ele>
        <time>2022-04-10T15:09:38Z</time>
      </trkpt>
      <trkpt lat="43.71701" lon="6.1793">
        <ele>622.8</ele>
        <time>2022-04-10T15:09:51Z</time>
      </trkpt>
      <trkpt lat="43.71712" lon="6.17931">
        <ele>621.3</ele>
        <time>2022-04-10T15:10:01Z</time>
      </trkpt>
      <trkpt lat="43.71722" lon="6.17927">
        <ele>620.8</ele>
        <time>2022-04-10T15:10:11Z</time>
      </trkpt>
      <trkpt lat="43.71731" lon="6.17922">
        <ele>620.2</ele>
        <time>2022-04-10T15:10:21Z</time>
      </trkpt>
      <trkpt lat="43.7174" lon="6.17922">
        <ele>618.6</ele>
        <time>2022-04-10T15:10:32Z</time>
      </trkpt>
      <trkpt lat="43.71749" lon="6.17919">
        <ele>617.7</ele>
        <time>2022-04-10T15:10:40Z</time>
      </trkpt>
      <trkpt lat="43.71758" lon="6.17918">
        <ele>616.6</ele>
        <time>2022-04-10T15:10:50Z</time>
      </trkpt>
      <trkpt lat="43.7177" lon="6.17913">
        <ele>616</ele>
        <time>2022-04-10T15:11:00Z</time>
      </trkpt>
      <trkpt lat="43.71779" lon="6.17909">
        <ele>615.3</ele>
        <time>2022-04-10T15:11:10Z</time>
      </trkpt>
      <trkpt lat="43.7179" lon="6.17905">
        <ele>614.3</ele>
        <time>2022-04-10T15:11:21Z</time>
      </trkpt>
      <trkpt lat="43.71801" lon="6.179">
        <ele>613.3</ele>
        <time>2022-04-10T15:11:32Z</time>
      </trkpt>
      <trkpt lat="43.71813" lon="6.17896">
        <ele>611.7</ele>
        <time>2022-04-10T15:11:43Z</time>
      </trkpt>
      <trkpt lat="43.71823" lon="6.17891">
        <ele>610.3</ele>
        <time>2022-04-10T15:11:53Z</time>
      </trkpt>
      <trkpt lat="43.71833" lon="6.1788">
        <ele>609.4</ele>
        <time>2022-04-10T15:12:03Z</time>
      </trkpt>
      <trkpt lat="43.71841" lon="6.17873">
        <ele>608.7</ele>
        <time>2022-04-10T15:12:13Z</time>
      </trkpt>
      <trkpt lat="43.71851" lon="6.17864">
        <ele>607.9</ele>
        <time>2022-04-10T15:12:23Z</time>
      </trkpt>
      <trkpt lat="43.71862" lon="6.17851">
        <ele>607.4</ele>
        <time>2022-04-10T15:12:32Z</time>
      </trkpt>
      <trkpt lat="43.7187" lon="6.17848">
        <ele>606.2</ele>
        <time>2022-04-10T15:12:41Z</time>
      </trkpt>
      <trkpt lat="43.71879" lon="6.17842">
        <ele>605.2</ele>
        <time>2022-04-10T15:12:51Z</time>
      </trkpt>
      <trkpt lat="43.71887" lon="6.17834">
        <ele>604.4</ele>
        <time>2022-04-10T15:13:02Z</time>
      </trkpt>
      <trkpt lat="43.71902" lon="6.1783">
        <ele>602.7</ele>
        <time>2022-04-10T15:13:14Z</time>
      </trkpt>
      <trkpt lat="43.71913" lon="6.17826">
        <ele>601.6</ele>
        <time>2022-04-10T15:13:25Z</time>
      </trkpt>
      <trkpt lat="43.71922" lon="6.17822">
        <ele>600.8</ele>
        <time>2022-04-10T15:13:36Z</time>
      </trkpt>
      <trkpt lat="43.71935" lon="6.17819">
        <ele>599.1</ele>
        <time>2022-04-10T15:13:46Z</time>
      </trkpt>
      <trkpt lat="43.71945" lon="6.17814">
        <ele>598</ele>
        <time>2022-04-10T15:13:56Z</time>
      </trkpt>
      <trkpt lat="43.71954" lon="6.17806">
        <ele>597.6</ele>
        <time>2022-04-10T15:14:06Z</time>
      </trkpt>
      <trkpt lat="43.71962" lon="6.17802">
        <ele>596.6</ele>
        <time>2022-04-10T15:14:15Z</time>
      </trkpt>
      <trkpt lat="43.71972" lon="6.17794">
        <ele>595.1</ele>
        <time>2022-04-10T15:14:25Z</time>
      </trkpt>
      <trkpt lat="43.7198" lon="6.17785">
        <ele>594.5</ele>
        <time>2022-04-10T15:14:34Z</time>
      </trkpt>
      <trkpt lat="43.71988" lon="6.17776">
        <ele>594</ele>
        <time>2022-04-10T15:14:44Z</time>
      </trkpt>
      <trkpt lat="43.71999" lon="6.1778">
        <ele>593.1</ele>
        <time>2022-04-10T15:14:53Z</time>
      </trkpt>
      <trkpt lat="43.7201" lon="6.17784">
        <ele>592.4</ele>
        <time>2022-04-10T15:15:03Z</time>
      </trkpt>
      <trkpt lat="43.72021" lon="6.17786">
        <ele>591.2</ele>
        <time>2022-04-10T15:15:14Z</time>
      </trkpt>
      <trkpt lat="43.72031" lon="6.1779">
        <ele>589.2</ele>
        <time>2022-04-10T15:15:31Z</time>
      </trkpt>
      <trkpt lat="43.72041" lon="6.17784">
        <ele>588.5</ele>
        <time>2022-04-10T15:15:52Z</time>
      </trkpt>
      <trkpt lat="43.7205" lon="6.17778">
        <ele>588.6</ele>
        <time>2022-04-10T15:16:00Z</time>
      </trkpt>
      <trkpt lat="43.72058" lon="6.1777">
        <ele>588.5</ele>
        <time>2022-04-10T15:16:08Z</time>
      </trkpt>
      <trkpt lat="43.72067" lon="6.1776">
        <ele>588.9</ele>
        <time>2022-04-10T15:16:17Z</time>
      </trkpt>
      <trkpt lat="43.72076" lon="6.17751">
        <ele>589.9</ele>
        <time>2022-04-10T15:16:26Z</time>
      </trkpt>
      <trkpt lat="43.72086" lon="6.17745">
        <ele>589.7</ele>
        <time>2022-04-10T15:16:35Z</time>
      </trkpt>
      <trkpt lat="43.72095" lon="6.17739">
        <ele>589.6</ele>
        <time>2022-04-10T15:16:44Z</time>
      </trkpt>
      <trkpt lat="43.72105" lon="6.17734">
        <ele>590.1</ele>
        <time>2022-04-10T15:16:53Z</time>
      </trkpt>
      <trkpt lat="43.72115" lon="6.17727">
        <ele>591.2</ele>
        <time>2022-04-10T15:17:02Z</time>
      </trkpt>
      <trkpt lat="43.72125" lon="6.17719">
        <ele>591.7</ele>
        <time>2022-04-10T15:17:11Z</time>
      </trkpt>
      <trkpt lat="43.72134" lon="6.1771">
        <ele>591.4</ele>
        <time>2022-04-10T15:17:20Z</time>
      </trkpt>
      <trkpt lat="43.72143" lon="6.17705">
        <ele>591.3</ele>
        <time>2022-04-10T15:17:28Z</time>
      </trkpt>
      <trkpt lat="43.72152" lon="6.17698">
        <ele>591.7</ele>
        <time>2022-04-10T15:17:36Z</time>
      </trkpt>
      <trkpt lat="43.7216" lon="6.1769">
        <ele>592</ele>
        <time>2022-04-10T15:17:44Z</time>
      </trkpt>
      <trkpt lat="43.72168" lon="6.17683">
        <ele>591.7</ele>
        <time>2022-04-10T15:17:52Z</time>
      </trkpt>
      <trkpt lat="43.72177" lon="6.17676">
        <ele>591.3</ele>
        <time>2022-04-10T15:18:00Z</time>
      </trkpt>
      <trkpt lat="43.72186" lon="6.1767">
        <ele>591.9</ele>
        <time>2022-04-10T15:18:09Z</time>
      </trkpt>
      <trkpt lat="43.72194" lon="6.17663">
        <ele>592.5</ele>
        <time>2022-04-10T15:18:17Z</time>
      </trkpt>
      <trkpt lat="43.72203" lon="6.17652">
        <ele>591.5</ele>
        <time>2022-04-10T15:18:27Z</time>
      </trkpt>
      <trkpt lat="43.72213" lon="6.17644">
        <ele>591.8</ele>
        <time>2022-04-10T15:18:36Z</time>
      </trkpt>
      <trkpt lat="43.72223" lon="6.17637">
        <ele>592.7</ele>
        <time>2022-04-10T15:18:45Z</time>
      </trkpt>
      <trkpt lat="43.72232" lon="6.17631">
        <ele>591.1</ele>
        <time>2022-04-10T15:18:53Z</time>
      </trkpt>
      <trkpt lat="43.72239" lon="6.17627">
        <ele>590.5</ele>
        <time>2022-04-10T15:19:01Z</time>
      </trkpt>
      <trkpt lat="43.72249" lon="6.17624">
        <ele>590.1</ele>
        <time>2022-04-10T15:19:09Z</time>
      </trkpt>
      <trkpt lat="43.72258" lon="6.17617">
        <ele>589.8</ele>
        <time>2022-04-10T15:19:18Z</time>
      </trkpt>
      <trkpt lat="43.72268" lon="6.17611">
        <ele>589.5</ele>
        <time>2022-04-10T15:19:26Z</time>
      </trkpt>
      <trkpt lat="43.72276" lon="6.17604">
        <ele>588.6</ele>
        <time>2022-04-10T15:19:35Z</time>
      </trkpt>
      <trkpt lat="43.72283" lon="6.17596">
        <ele>588.7</ele>
        <time>2022-04-10T15:19:44Z</time>
      </trkpt>
      <trkpt lat="43.7229" lon="6.17587">
        <ele>589.5</ele>
        <time>2022-04-10T15:19:55Z</time>
      </trkpt>
      <trkpt lat="43.72292" lon="6.1758">
        <ele>589.6</ele>
        <time>2022-04-10T15:20:09Z</time>
      </trkpt>
      <trkpt lat="43.72295" lon="6.17587">
        <ele>589.3</ele>
        <time>2022-04-10T15:20:31Z</time>
      </trkpt>
      <trkpt lat="43.72309" lon="6.17587">
        <ele>588.5</ele>
        <time>2022-04-10T15:20:46Z</time>
      </trkpt>
      <trkpt lat="43.72319" lon="6.17583">
        <ele>587.6</ele>
        <time>2022-04-10T15:20:56Z</time>
      </trkpt>
      <trkpt lat="43.72329" lon="6.17579">
        <ele>585.8</ele>
        <time>2022-04-10T15:21:07Z</time>
      </trkpt>
      <trkpt lat="43.72337" lon="6.17575">
        <ele>585.1</ele>
        <time>2022-04-10T15:21:26Z</time>
      </trkpt>
      <trkpt lat="43.72347" lon="6.17581">
        <ele>584.2</ele>
        <time>2022-04-10T15:21:38Z</time>
      </trkpt>
      <trkpt lat="43.72358" lon="6.1758">
        <ele>583.7</ele>
        <time>2022-04-10T15:21:49Z</time>
      </trkpt>
      <trkpt lat="43.72372" lon="6.17581">
        <ele>581.8</ele>
        <time>2022-04-10T15:22:00Z</time>
      </trkpt>
      <trkpt lat="43.72385" lon="6.17581">
        <ele>580.2</ele>
        <time>2022-04-10T15:22:12Z</time>
      </trkpt>
      <trkpt lat="43.72399" lon="6.17583">
        <ele>577</ele>
        <time>2022-04-10T15:22:26Z</time>
      </trkpt>
      <trkpt lat="43.72411" lon="6.17583">
        <ele>574.3</ele>
        <time>2022-04-10T15:22:40Z</time>
      </trkpt>
      <trkpt lat="43.72429" lon="6.17582">
        <ele>571.2</ele>
        <time>2022-04-10T15:22:53Z</time>
      </trkpt>
      <trkpt lat="43.72441" lon="6.17581">
        <ele>569.3</ele>
        <time>2022-04-10T15:23:07Z</time>
      </trkpt>
      <trkpt lat="43.72453" lon="6.17577">
        <ele>569.2</ele>
        <time>2022-04-10T15:23:17Z</time>
      </trkpt>
      <trkpt lat="43.72471" lon="6.17582">
        <ele>567.2</ele>
        <time>2022-04-10T15:23:29Z</time>
      </trkpt>
      <trkpt lat="43.72477" lon="6.1759">
        <ele>564.6</ele>
        <time>2022-04-10T15:23:38Z</time>
      </trkpt>
      <trkpt lat="43.72481" lon="6.17598">
        <ele>562.1</ele>
        <time>2022-04-10T15:23:53Z</time>
      </trkpt>
      <trkpt lat="43.72494" lon="6.17597">
        <ele>559.8</ele>
        <time>2022-04-10T15:24:10Z</time>
      </trkpt>
      <trkpt lat="43.72509" lon="6.17595">
        <ele>557.1</ele>
        <time>2022-04-10T15:24:26Z</time>
      </trkpt>
      <trkpt lat="43.72521" lon="6.17593">
        <ele>555.1</ele>
        <time>2022-04-10T15:24:38Z</time>
      </trkpt>
      <trkpt lat="43.72533" lon="6.17592">
        <ele>552.9</ele>
        <time>2022-04-10T15:24:55Z</time>
      </trkpt>
      <trkpt lat="43.72546" lon="6.17589">
        <ele>550.5</ele>
        <time>2022-04-10T15:25:10Z</time>
      </trkpt>
      <trkpt lat="43.72558" lon="6.17589">
        <ele>547.7</ele>
        <time>2022-04-10T15:25:22Z</time>
      </trkpt>
      <trkpt lat="43.72569" lon="6.17585">
        <ele>547.1</ele>
        <time>2022-04-10T15:25:34Z</time>
      </trkpt>
      <trkpt lat="43.7258" lon="6.17581">
        <ele>546.2</ele>
        <time>2022-04-10T15:25:46Z</time>
      </trkpt>
      <trkpt lat="43.72593" lon="6.17581">
        <ele>543.8</ele>
        <time>2022-04-10T15:25:57Z</time>
      </trkpt>
      <trkpt lat="43.72605" lon="6.17579">
        <ele>542</ele>
        <time>2022-04-10T15:26:11Z</time>
      </trkpt>
      <trkpt lat="43.72619" lon="6.17576">
        <ele>539.6</ele>
        <time>2022-04-10T15:26:26Z</time>
      </trkpt>
      <trkpt lat="43.72631" lon="6.17576">
        <ele>537</ele>
        <time>2022-04-10T15:26:47Z</time>
      </trkpt>
      <trkpt lat="43.72634" lon="6.17572">
        <ele>537.4</ele>
        <time>2022-04-10T15:28:45Z</time>
      </trkpt>
      <trkpt lat="43.72648" lon="6.17574">
        <ele>534.2</ele>
        <time>2022-04-10T15:29:02Z</time>
      </trkpt>
      <trkpt lat="43.72665" lon="6.17577">
        <ele>530.8</ele>
        <time>2022-04-10T15:29:15Z</time>
      </trkpt>
      <trkpt lat="43.72678" lon="6.17576">
        <ele>529.5</ele>
        <time>2022-04-10T15:29:25Z</time>
      </trkpt>
      <trkpt lat="43.72683" lon="6.17569">
        <ele>530.6</ele>
        <time>2022-04-10T15:29:35Z</time>
      </trkpt>
      <trkpt lat="43.7268" lon="6.17557">
        <ele>533.6</ele>
        <time>2022-04-10T15:29:49Z</time>
      </trkpt>
      <trkpt lat="43.72684" lon="6.17568">
        <ele>530.6</ele>
        <time>2022-04-10T15:30:18Z</time>
      </trkpt>
      <trkpt lat="43.72688" lon="6.17575">
        <ele>528.5</ele>
        <time>2022-04-10T15:30:45Z</time>
      </trkpt>
      <trkpt lat="43.72701" lon="6.17578">
        <ele>526.4</ele>
        <time>2022-04-10T15:31:05Z</time>
      </trkpt>
      <trkpt lat="43.7271" lon="6.17575">
        <ele>525.5</ele>
        <time>2022-04-10T15:31:13Z</time>
      </trkpt>
      <trkpt lat="43.72715" lon="6.17573">
        <ele>525.2</ele>
        <time>2022-04-10T15:31:28Z</time>
      </trkpt>
    </trkseg>
  </trk>
</gpx>